SWR73 KIAD-LSZH
Flight info
| Callsign | SWR73 |
|---|---|
| Flight time | 8h 0m |
| Altitude | 37000 |
| Route | JCOBY4 SWANN DCT BROSS Q419 RBV Q22 FOXWD DCT WITCH DCT ALLEX N431B ELSIR/M083F390 NATQ SOVED/N0470F390 DCT LUTOV DCT MAKUX DCT SOSIM L15 FINMA DCT CHT DCT ITVIP DCT KONAN UL607 KOK DCT CIV DCT SUTAL DCT GTQ DCT BAMEV DCT BLM |
| Aircraft | A333/H-SDE3GHIJ2J3J5M1RVWXY/LB2D1 |
Departure
| Time | 2026-04-26 00:07 |
|---|---|
| Airport | Washington Dulles International Airport (KIAD) |
Arrival
| Time | 2026-04-26 08:07 |
|---|---|
| Airport | Zürich Airport (LSZH) |
| Time | Latitude | Longitude | Altitude | Speed | Heading |
|---|---|---|---|---|---|
| 2026-04-25 23:15 | 38.94943 | -77.45023 | 303 ft | 0 kts | 182° |
| 2026-04-25 23:48 | 38.94957 | -77.45022 | 304 ft | 3 kts | 186° |
| 2026-04-25 23:49 | 38.94977 | -77.45018 | 304 ft | 3 kts | 194° |
| 2026-04-25 23:49 | 38.94996 | -77.45010 | 303 ft | 3 kts | 206° |
| 2026-04-25 23:49 | 38.95013 | -77.44997 | 305 ft | 4 kts | 229° |
| 2026-04-25 23:49 | 38.95021 | -77.44980 | 303 ft | 3 kts | 267° |
| 2026-04-25 23:50 | 38.95021 | -77.44976 | 302 ft | 4 kts | 271° |
| 2026-04-25 23:52 | 38.95021 | -77.44977 | 302 ft | 1 kts | 271° |
| 2026-04-25 23:52 | 38.95022 | -77.45015 | 304 ft | 7 kts | 270° |
| 2026-04-25 23:52 | 38.95022 | -77.45093 | 302 ft | 10 kts | 270° |
| 2026-04-25 23:53 | 38.95023 | -77.45184 | 303 ft | 10 kts | 270° |
| 2026-04-25 23:53 | 38.95024 | -77.45283 | 302 ft | 12 kts | 271° |
| 2026-04-25 23:53 | 38.95025 | -77.45396 | 300 ft | 14 kts | 270° |
| 2026-04-25 23:53 | 38.95028 | -77.45494 | 302 ft | 0 kts | 271° |
| 2026-04-25 23:57 | 38.95028 | -77.45515 | 299 ft | 5 kts | 271° |
| 2026-04-25 23:57 | 38.95026 | -77.45571 | 299 ft | 8 kts | 255° |
| 2026-04-25 23:57 | 38.94981 | -77.45599 | 301 ft | 8 kts | 187° |
| 2026-04-25 23:58 | 38.94912 | -77.45602 | 302 ft | 11 kts | 180° |
| 2026-04-25 23:58 | 38.94829 | -77.45602 | 303 ft | 13 kts | 180° |
| 2026-04-25 23:58 | 38.94737 | -77.45603 | 305 ft | 14 kts | 180° |
| 2026-04-25 23:58 | 38.94635 | -77.45605 | 302 ft | 16 kts | 181° |
| 2026-04-25 23:59 | 38.94524 | -77.45608 | 307 ft | 16 kts | 180° |
| 2026-04-25 23:59 | 38.94417 | -77.45607 | 308 ft | 14 kts | 180° |
| 2026-04-25 23:59 | 38.94321 | -77.45608 | 311 ft | 13 kts | 182° |
| 2026-04-25 23:59 | 38.94226 | -77.45610 | 309 ft | 14 kts | 180° |
| 2026-04-26 00:00 | 38.94129 | -77.45611 | 310 ft | 14 kts | 181° |
| 2026-04-26 00:00 | 38.94033 | -77.45614 | 309 ft | 14 kts | 181° |
| 2026-04-26 00:00 | 38.93932 | -77.45615 | 308 ft | 15 kts | 180° |
| 2026-04-26 00:00 | 38.93816 | -77.45615 | 304 ft | 18 kts | 180° |
| 2026-04-26 00:01 | 38.93754 | -77.45646 | 304 ft | 6 kts | 251° |
| 2026-04-26 00:01 | 38.93762 | -77.45685 | 304 ft | 3 kts | 295° |
| 2026-04-26 00:01 | 38.93762 | -77.45704 | 304 ft | 3 kts | 265° |
| 2026-04-26 00:01 | 38.93728 | -77.45740 | 304 ft | 11 kts | 205° |
| 2026-04-26 00:02 | 38.93650 | -77.45772 | 295 ft | 7 kts | 189° |
| 2026-04-26 00:02 | 38.93626 | -77.45761 | 295 ft | 4 kts | 146° |
| 2026-04-26 00:02 | 38.93604 | -77.45707 | 294 ft | 9 kts | 109° |
| 2026-04-26 00:02 | 38.93597 | -77.45683 | 295 ft | 2 kts | 113° |
| 2026-04-26 00:03 | 38.93587 | -77.45653 | 294 ft | 4 kts | 112° |
| 2026-04-26 00:03 | 38.93576 | -77.45617 | 294 ft | 4 kts | 111° |
| 2026-04-26 00:03 | 38.93565 | -77.45581 | 295 ft | 4 kts | 111° |
| 2026-04-26 00:03 | 38.93549 | -77.45545 | 292 ft | 5 kts | 129° |
| 2026-04-26 00:04 | 38.93513 | -77.45533 | 291 ft | 7 kts | 188° |
| 2026-04-26 00:04 | 38.93487 | -77.45544 | 286 ft | 0 kts | 200° |
| 2026-04-26 00:04 | 38.93483 | -77.45546 | 286 ft | 3 kts | 200° |
| 2026-04-26 00:05 | 38.93435 | -77.45568 | 287 ft | 11 kts | 199° |
| 2026-04-26 00:05 | 38.93377 | -77.45609 | 285 ft | 8 kts | 238° |
| 2026-04-26 00:05 | 38.93382 | -77.45659 | 286 ft | 0 kts | 288° |
| 2026-04-26 00:06 | 38.93409 | -77.45764 | 287 ft | 37 kts | 289° |
| 2026-04-26 00:06 | 38.93576 | -77.46314 | 295 ft | 94 kts | 291° |
| 2026-04-26 00:06 | 38.93871 | -77.47315 | 301 ft | 145 kts | 291° |
| 2026-04-26 00:06 | 38.94287 | -77.48713 | 405 ft | 182 kts | 291° |
| 2026-04-26 00:07 | 38.94792 | -77.50224 | 1110 ft | 183 kts | 301° |
| 2026-04-26 00:07 | 38.95521 | -77.51600 | 1836 ft | 190 kts | 304° |
| 2026-04-26 00:07 | 38.96275 | -77.53060 | 2364 ft | 202 kts | 301° |
| 2026-04-26 00:07 | 38.97106 | -77.54603 | 2771 ft | 217 kts | 304° |
| 2026-04-26 00:08 | 38.98005 | -77.56248 | 3131 ft | 235 kts | 301° |
| 2026-04-26 00:08 | 38.98967 | -77.58071 | 3464 ft | 255 kts | 304° |
| 2026-04-26 00:08 | 39.00031 | -77.59943 | 4070 ft | 259 kts | 304° |
| 2026-04-26 00:08 | 39.01104 | -77.61801 | 4702 ft | 259 kts | 304° |
| 2026-04-26 00:09 | 39.02378 | -77.63426 | 4976 ft | 261 kts | 326° |
| 2026-04-26 00:09 | 39.04039 | -77.64381 | 5024 ft | 265 kts | 338° |
| 2026-04-26 00:09 | 39.05780 | -77.65108 | 5025 ft | 267 kts | 339° |
| 2026-04-26 00:09 | 39.07558 | -77.65817 | 5024 ft | 266 kts | 340° |
| 2026-04-26 00:10 | 39.09326 | -77.66523 | 5279 ft | 267 kts | 340° |
| 2026-04-26 00:10 | 39.11104 | -77.67241 | 5886 ft | 269 kts | 340° |
| 2026-04-26 00:10 | 39.12884 | -77.67970 | 6676 ft | 269 kts | 339° |
| 2026-04-26 00:10 | 39.14679 | -77.68664 | 7381 ft | 272 kts | 345° |
| 2026-04-26 00:11 | 39.16583 | -77.68886 | 8095 ft | 279 kts | 1° |
| 2026-04-26 00:11 | 39.18473 | -77.68225 | 8786 ft | 288 kts | 26° |
| 2026-04-26 00:11 | 39.19979 | -77.66499 | 9451 ft | 298 kts | 55° |
| 2026-04-26 00:11 | 39.20633 | -77.64274 | 9943 ft | 302 kts | 83° |
| 2026-04-26 00:12 | 39.20522 | -77.61603 | 10337 ft | 314 kts | 99° |
| 2026-04-26 00:12 | 39.20101 | -77.58757 | 10603 ft | 332 kts | 102° |
| 2026-04-26 00:12 | 39.19624 | -77.55763 | 10849 ft | 349 kts | 101° |
| 2026-04-26 00:12 | 39.19139 | -77.52612 | 11082 ft | 366 kts | 101° |
| 2026-04-26 00:13 | 39.18656 | -77.49360 | 11322 ft | 382 kts | 101° |
| 2026-04-26 00:13 | 39.18154 | -77.45933 | 11638 ft | 395 kts | 100° |
| 2026-04-26 00:13 | 39.17835 | -77.42382 | 12137 ft | 401 kts | 93° |
| 2026-04-26 00:13 | 39.17700 | -77.38774 | 12691 ft | 406 kts | 91° |
| 2026-04-26 00:14 | 39.17607 | -77.35100 | 13287 ft | 410 kts | 91° |
| 2026-04-26 00:14 | 39.17529 | -77.31403 | 13829 ft | 415 kts | 91° |
| 2026-04-26 00:14 | 39.17457 | -77.27659 | 14337 ft | 419 kts | 91° |
| 2026-04-26 00:14 | 39.17387 | -77.23884 | 14836 ft | 423 kts | 91° |
| 2026-04-26 00:15 | 39.17317 | -77.20079 | 15337 ft | 427 kts | 91° |
| 2026-04-26 00:15 | 39.17246 | -77.16238 | 15833 ft | 430 kts | 91° |
| 2026-04-26 00:15 | 39.17174 | -77.12418 | 16333 ft | 434 kts | 91° |
| 2026-04-26 00:15 | 39.17100 | -77.08521 | 16839 ft | 437 kts | 91° |
| 2026-04-26 00:16 | 39.17025 | -77.04596 | 17339 ft | 440 kts | 91° |
| 2026-04-26 00:16 | 39.16947 | -77.00639 | 17844 ft | 443 kts | 91° |
| 2026-04-26 00:16 | 39.16868 | -76.96652 | 18307 ft | 446 kts | 91° |
| 2026-04-26 00:16 | 39.16786 | -76.92630 | 18709 ft | 450 kts | 91° |
| 2026-04-26 00:17 | 39.16704 | -76.88595 | 19121 ft | 453 kts | 91° |
| 2026-04-26 00:17 | 39.16618 | -76.84518 | 19569 ft | 455 kts | 92° |
| 2026-04-26 00:17 | 39.16532 | -76.80436 | 20025 ft | 457 kts | 92° |
| 2026-04-26 00:17 | 39.16443 | -76.76332 | 20376 ft | 460 kts | 92° |
| 2026-04-26 00:18 | 39.16352 | -76.72199 | 20768 ft | 463 kts | 92° |
| 2026-04-26 00:18 | 39.16259 | -76.68029 | 21157 ft | 466 kts | 92° |
| 2026-04-26 00:18 | 39.16164 | -76.63835 | 21535 ft | 469 kts | 92° |
| 2026-04-26 00:18 | 39.16067 | -76.59627 | 21928 ft | 471 kts | 92° |
| 2026-04-26 00:19 | 39.15968 | -76.55392 | 22297 ft | 474 kts | 92° |
| 2026-04-26 00:19 | 39.15868 | -76.51189 | 22670 ft | 477 kts | 93° |
| 2026-04-26 00:19 | 39.15765 | -76.46909 | 23109 ft | 478 kts | 93° |
| 2026-04-26 00:19 | 39.15659 | -76.42613 | 23533 ft | 480 kts | 93° |
| 2026-04-26 00:20 | 39.15552 | -76.38305 | 23838 ft | 483 kts | 93° |
| 2026-04-26 00:20 | 39.15442 | -76.33961 | 24105 ft | 487 kts | 93° |
| 2026-04-26 00:20 | 39.15330 | -76.29588 | 24394 ft | 490 kts | 93° |
| 2026-04-26 00:20 | 39.15228 | -76.25190 | 24684 ft | 493 kts | 91° |
| 2026-04-26 00:21 | 39.15395 | -76.20753 | 24968 ft | 497 kts | 85° |
| 2026-04-26 00:21 | 39.15787 | -76.16318 | 25242 ft | 500 kts | 83° |
| 2026-04-26 00:21 | 39.16285 | -76.11875 | 25575 ft | 501 kts | 82° |
| 2026-04-26 00:21 | 39.16829 | -76.07430 | 25907 ft | 503 kts | 81° |
| 2026-04-26 00:22 | 39.17384 | -76.02956 | 26166 ft | 507 kts | 82° |
| 2026-04-26 00:22 | 39.17935 | -75.98457 | 26426 ft | 510 kts | 81° |
| 2026-04-26 00:22 | 39.18748 | -75.93975 | 26608 ft | 516 kts | 72° |
| 2026-04-26 00:22 | 39.20087 | -75.89690 | 26863 ft | 518 kts | 62° |
| 2026-04-26 00:23 | 39.21999 | -75.85755 | 27148 ft | 518 kts | 50° |
| 2026-04-26 00:23 | 39.24402 | -75.82370 | 27425 ft | 518 kts | 41° |
| 2026-04-26 00:23 | 39.27053 | -75.79215 | 27702 ft | 519 kts | 38° |
| 2026-04-26 00:23 | 39.29794 | -75.76173 | 27962 ft | 521 kts | 37° |
| 2026-04-26 00:24 | 39.32593 | -75.73163 | 28222 ft | 524 kts | 36° |
| 2026-04-26 00:24 | 39.35409 | -75.70158 | 28481 ft | 526 kts | 36° |
| 2026-04-26 00:24 | 39.38233 | -75.67129 | 28790 ft | 528 kts | 36° |
| 2026-04-26 00:24 | 39.41051 | -75.64081 | 29208 ft | 527 kts | 36° |
| 2026-04-26 00:25 | 39.43854 | -75.61023 | 29584 ft | 527 kts | 36° |
| 2026-04-26 00:25 | 39.46652 | -75.57954 | 29954 ft | 527 kts | 36° |
| 2026-04-26 00:25 | 39.49446 | -75.54876 | 30287 ft | 527 kts | 36° |
| 2026-04-26 00:25 | 39.52240 | -75.51791 | 30624 ft | 527 kts | 37° |
| 2026-04-26 00:26 | 39.55021 | -75.48716 | 30951 ft | 526 kts | 37° |
| 2026-04-26 00:26 | 39.57809 | -75.45630 | 31331 ft | 525 kts | 37° |
| 2026-04-26 00:26 | 39.60545 | -75.42600 | 31642 ft | 524 kts | 37° |
| 2026-04-26 00:26 | 39.63319 | -75.39522 | 31981 ft | 523 kts | 36° |
| 2026-04-26 00:27 | 39.66085 | -75.36452 | 32339 ft | 521 kts | 36° |
| 2026-04-26 00:27 | 39.68839 | -75.33394 | 32672 ft | 521 kts | 36° |
| 2026-04-26 00:27 | 39.71591 | -75.30336 | 32982 ft | 520 kts | 37° |
| 2026-04-26 00:27 | 39.74342 | -75.27277 | 33310 ft | 519 kts | 37° |
| 2026-04-26 00:28 | 39.77081 | -75.24226 | 33591 ft | 519 kts | 37° |
| 2026-04-26 00:28 | 39.79678 | -75.20938 | 33874 ft | 522 kts | 43° |
| 2026-04-26 00:28 | 39.82139 | -75.17466 | 34153 ft | 522 kts | 44° |
| 2026-04-26 00:28 | 39.84555 | -75.13953 | 34469 ft | 519 kts | 45° |
| 2026-04-26 00:29 | 39.86888 | -75.10492 | 35062 ft | 509 kts | 45° |
| 2026-04-26 00:29 | 39.89197 | -75.07038 | 35515 ft | 504 kts | 45° |
| 2026-04-26 00:29 | 39.91495 | -75.03592 | 35826 ft | 501 kts | 44° |
| 2026-04-26 00:29 | 39.93776 | -75.00175 | 36107 ft | 500 kts | 44° |
| 2026-04-26 00:30 | 39.96040 | -74.96735 | 36248 ft | 502 kts | 47° |
| 2026-04-26 00:30 | 39.99434 | -74.90545 | 36533 ft | 505 kts | 51° |
| 2026-04-26 00:30 | 40.01412 | -74.86746 | 36717 ft | 505 kts | 52° |
| 2026-04-26 00:31 | 40.03363 | -74.82933 | 36915 ft | 505 kts | 52° |
| 2026-04-26 00:31 | 40.05307 | -74.79102 | 37045 ft | 506 kts | 52° |
| 2026-04-26 00:31 | 40.07246 | -74.75269 | 37044 ft | 505 kts | 52° |
| 2026-04-26 00:32 | 40.11096 | -74.67653 | 37079 ft | 504 kts | 52° |
| 2026-04-26 00:32 | 40.16931 | -74.56119 | 37067 ft | 510 kts | 52° |
| 2026-04-26 00:33 | 40.21252 | -74.48814 | 37070 ft | 501 kts | 38° |
| 2026-04-26 00:33 | 40.26454 | -74.42814 | 37065 ft | 498 kts | 34° |
| 2026-04-26 00:34 | 40.31817 | -74.37077 | 37063 ft | 498 kts | 33° |
| 2026-04-26 00:34 | 40.37230 | -74.31348 | 37070 ft | 498 kts | 33° |
| 2026-04-26 00:35 | 40.42557 | -74.25662 | 37088 ft | 497 kts | 33° |
| 2026-04-26 00:35 | 40.47924 | -74.19896 | 37111 ft | 497 kts | 33° |
| 2026-04-26 00:36 | 40.53282 | -74.14119 | 37102 ft | 498 kts | 33° |
| 2026-04-26 00:36 | 40.58643 | -74.08325 | 37121 ft | 499 kts | 33° |
| 2026-04-26 00:37 | 40.64010 | -74.02513 | 37099 ft | 499 kts | 33° |
| 2026-04-26 00:37 | 40.69332 | -73.96737 | 37101 ft | 498 kts | 33° |
| 2026-04-26 00:38 | 40.74679 | -73.90921 | 37081 ft | 497 kts | 33° |
| 2026-04-26 00:38 | 40.80014 | -73.85110 | 37085 ft | 497 kts | 33° |
| 2026-04-26 00:39 | 40.85278 | -73.79163 | 37098 ft | 502 kts | 40° |
| 2026-04-26 00:39 | 40.89692 | -73.71919 | 37101 ft | 509 kts | 49° |
| 2026-04-26 00:40 | 40.93802 | -73.64276 | 37100 ft | 510 kts | 51° |
| 2026-04-26 00:40 | 40.97841 | -73.56561 | 37102 ft | 509 kts | 51° |
| 2026-04-26 00:41 | 41.01848 | -73.48917 | 37107 ft | 508 kts | 51° |
| 2026-04-26 00:41 | 41.05894 | -73.41228 | 37105 ft | 508 kts | 51° |
| 2026-04-26 00:42 | 41.09944 | -73.33531 | 37124 ft | 508 kts | 51° |
| 2026-04-26 00:42 | 41.13984 | -73.25834 | 37127 ft | 508 kts | 50° |
| 2026-04-26 00:43 | 41.18015 | -73.18131 | 37135 ft | 507 kts | 51° |
| 2026-04-26 00:43 | 41.22039 | -73.10424 | 37134 ft | 508 kts | 51° |
| 2026-04-26 00:44 | 41.26037 | -73.02746 | 37136 ft | 508 kts | 51° |
| 2026-04-26 00:44 | 41.30005 | -72.94965 | 37137 ft | 509 kts | 53° |
| 2026-04-26 00:45 | 41.33676 | -72.86903 | 37150 ft | 510 kts | 55° |
| 2026-04-26 00:45 | 41.37256 | -72.78753 | 37136 ft | 509 kts | 55° |
| 2026-04-26 00:46 | 41.40855 | -72.70608 | 37142 ft | 509 kts | 55° |
| 2026-04-26 00:46 | 41.44468 | -72.62486 | 37139 ft | 509 kts | 55° |
| 2026-04-26 00:47 | 41.48080 | -72.54369 | 37146 ft | 509 kts | 54° |
| 2026-04-26 00:47 | 41.51663 | -72.46295 | 37123 ft | 508 kts | 54° |
| 2026-04-26 00:48 | 41.55257 | -72.38177 | 37127 ft | 508 kts | 55° |
| 2026-04-26 00:48 | 41.58845 | -72.30045 | 37131 ft | 508 kts | 55° |
| 2026-04-26 00:49 | 41.62427 | -72.21905 | 37138 ft | 507 kts | 54° |
| 2026-04-26 00:49 | 41.65971 | -72.13827 | 37139 ft | 506 kts | 55° |
| 2026-04-26 00:50 | 41.69538 | -72.05680 | 37138 ft | 507 kts | 55° |
| 2026-04-26 00:50 | 41.73094 | -71.97534 | 37138 ft | 507 kts | 55° |
| 2026-04-26 00:51 | 41.76646 | -71.89374 | 37136 ft | 507 kts | 55° |
| 2026-04-26 00:51 | 41.80438 | -71.81458 | 37130 ft | 499 kts | 44° |
| 2026-04-26 00:52 | 41.85428 | -71.75204 | 37129 ft | 489 kts | 32° |
| 2026-04-26 00:52 | 41.90744 | -71.69592 | 37130 ft | 488 kts | 30° |
| 2026-04-26 00:53 | 41.96147 | -71.64063 | 37138 ft | 488 kts | 30° |
| 2026-04-26 00:53 | 42.01543 | -71.58507 | 37128 ft | 489 kts | 31° |
| 2026-04-26 00:54 | 42.06931 | -71.52905 | 37128 ft | 488 kts | 31° |
| 2026-04-26 00:54 | 42.12294 | -71.47297 | 37140 ft | 487 kts | 31° |
| 2026-04-26 00:55 | 42.17609 | -71.41728 | 37136 ft | 486 kts | 31° |
| 2026-04-26 00:55 | 42.22943 | -71.36129 | 37127 ft | 486 kts | 31° |
| 2026-04-26 00:56 | 42.28278 | -71.30519 | 37140 ft | 486 kts | 31° |
| 2026-04-26 00:56 | 42.33605 | -71.24904 | 37130 ft | 485 kts | 31° |
| 2026-04-26 00:57 | 42.38922 | -71.19286 | 37132 ft | 485 kts | 31° |
| 2026-04-26 00:57 | 42.44240 | -71.13656 | 37131 ft | 485 kts | 31° |
| 2026-04-26 00:58 | 42.49555 | -71.08016 | 37129 ft | 485 kts | 31° |
| 2026-04-26 00:58 | 42.54875 | -71.02359 | 37128 ft | 485 kts | 31° |
| 2026-04-26 00:59 | 42.60150 | -70.96736 | 37128 ft | 485 kts | 31° |
| 2026-04-26 00:59 | 42.65458 | -70.91058 | 37129 ft | 487 kts | 33° |
| 2026-04-26 01:00 | 42.70080 | -70.84170 | 37130 ft | 499 kts | 48° |
| 2026-04-26 01:00 | 42.73973 | -70.76376 | 37126 ft | 501 kts | 51° |
| 2026-04-26 01:01 | 42.77732 | -70.68372 | 37128 ft | 502 kts | 52° |
| 2026-04-26 01:01 | 42.81470 | -70.60369 | 37131 ft | 500 kts | 52° |
| 2026-04-26 01:02 | 42.84967 | -70.52920 | 37126 ft | 501 kts | 51° |
| 2026-04-26 01:02 | 42.88694 | -70.44979 | 37130 ft | 498 kts | 51° |
| 2026-04-26 01:03 | 42.92427 | -70.37027 | 37136 ft | 497 kts | 51° |
| 2026-04-26 01:03 | 42.96149 | -70.29097 | 37136 ft | 496 kts | 51° |
| 2026-04-26 01:04 | 42.99865 | -70.21151 | 37141 ft | 496 kts | 51° |
| 2026-04-26 01:04 | 43.03543 | -70.13255 | 37143 ft | 494 kts | 51° |
| 2026-04-26 01:05 | 43.07219 | -70.05339 | 37147 ft | 493 kts | 51° |
| 2026-04-26 01:05 | 43.10892 | -69.97412 | 37144 ft | 493 kts | 51° |
| 2026-04-26 01:06 | 43.14557 | -69.89481 | 37144 ft | 493 kts | 51° |
| 2026-04-26 01:06 | 43.18216 | -69.81541 | 37158 ft | 492 kts | 51° |
| 2026-04-26 01:07 | 43.21856 | -69.73614 | 37137 ft | 490 kts | 51° |
| 2026-04-26 01:07 | 43.25457 | -69.65759 | 37135 ft | 490 kts | 51° |
| 2026-04-26 01:08 | 43.29082 | -69.57830 | 37138 ft | 490 kts | 51° |
| 2026-04-26 01:08 | 43.32707 | -69.49880 | 37145 ft | 490 kts | 51° |
| 2026-04-26 01:09 | 43.36317 | -69.41937 | 37129 ft | 490 kts | 51° |
| 2026-04-26 01:09 | 43.39922 | -69.33986 | 37129 ft | 490 kts | 51° |
| 2026-04-26 01:10 | 43.43496 | -69.26077 | 37127 ft | 490 kts | 51° |
| 2026-04-26 01:10 | 43.47087 | -69.18113 | 37137 ft | 490 kts | 51° |
| 2026-04-26 01:11 | 43.50677 | -69.10133 | 37129 ft | 490 kts | 51° |
| 2026-04-26 01:11 | 43.54271 | -69.02120 | 37131 ft | 490 kts | 51° |
| 2026-04-26 01:12 | 43.57856 | -68.94104 | 37133 ft | 491 kts | 51° |
| 2026-04-26 01:12 | 43.61411 | -68.86131 | 37133 ft | 490 kts | 51° |
| 2026-04-26 01:13 | 43.64982 | -68.78101 | 37135 ft | 490 kts | 51° |
| 2026-04-26 01:13 | 43.68545 | -68.70069 | 37126 ft | 490 kts | 51° |
| 2026-04-26 01:14 | 43.72101 | -68.62028 | 37126 ft | 489 kts | 51° |
| 2026-04-26 01:14 | 43.75646 | -68.53991 | 37129 ft | 488 kts | 51° |
| 2026-04-26 01:15 | 43.79175 | -68.45968 | 37122 ft | 488 kts | 51° |
| 2026-04-26 01:15 | 43.82678 | -68.37982 | 37121 ft | 488 kts | 51° |
| 2026-04-26 01:16 | 43.86201 | -68.29931 | 37120 ft | 488 kts | 51° |
| 2026-04-26 01:16 | 43.89720 | -68.21862 | 37115 ft | 488 kts | 51° |
| 2026-04-26 01:17 | 43.93225 | -68.13805 | 37118 ft | 487 kts | 51° |
| 2026-04-26 01:17 | 43.96132 | -68.07106 | 37119 ft | 487 kts | 51° |
| 2026-04-26 01:18 | 44.00175 | -67.97757 | 37133 ft | 485 kts | 51° |
| 2026-04-26 01:18 | 44.03643 | -67.89718 | 37114 ft | 483 kts | 51° |
| 2026-04-26 01:19 | 44.06512 | -67.83051 | 37113 ft | 483 kts | 51° |
| 2026-04-26 01:19 | 44.09958 | -67.75025 | 37114 ft | 483 kts | 51° |
| 2026-04-26 01:20 | 44.13403 | -67.66977 | 37103 ft | 483 kts | 51° |
| 2026-04-26 01:20 | 44.16831 | -67.58941 | 37093 ft | 481 kts | 51° |
| 2026-04-26 01:21 | 44.20243 | -67.50921 | 37102 ft | 480 kts | 51° |
| 2026-04-26 01:21 | 44.23648 | -67.42900 | 37091 ft | 480 kts | 51° |
| 2026-04-26 01:22 | 44.27018 | -67.34938 | 37091 ft | 479 kts | 51° |
| 2026-04-26 01:22 | 44.30404 | -67.26914 | 37088 ft | 479 kts | 51° |
| 2026-04-26 01:23 | 44.33784 | -67.18884 | 37086 ft | 479 kts | 51° |
| 2026-04-26 01:23 | 44.37157 | -67.10846 | 37078 ft | 479 kts | 51° |
| 2026-04-26 01:24 | 44.40503 | -67.02852 | 37078 ft | 479 kts | 51° |
| 2026-04-26 01:24 | 44.43921 | -66.94855 | 37072 ft | 477 kts | 50° |
| 2026-04-26 01:25 | 44.47415 | -66.86955 | 37078 ft | 477 kts | 49° |
| 2026-04-26 01:25 | 44.50914 | -66.79054 | 37066 ft | 476 kts | 49° |
| 2026-04-26 01:26 | 44.54394 | -66.71143 | 37093 ft | 476 kts | 50° |
| 2026-04-26 01:26 | 44.57836 | -66.63275 | 37063 ft | 475 kts | 50° |
| 2026-04-26 01:27 | 44.61290 | -66.55352 | 37061 ft | 475 kts | 50° |
| 2026-04-26 01:27 | 44.64739 | -66.47420 | 37061 ft | 475 kts | 50° |
| 2026-04-26 01:28 | 44.68184 | -66.39477 | 37084 ft | 476 kts | 50° |
| 2026-04-26 01:28 | 44.71599 | -66.31580 | 37062 ft | 475 kts | 50° |
| 2026-04-26 01:29 | 44.75028 | -66.23628 | 37062 ft | 475 kts | 50° |
| 2026-04-26 01:29 | 44.78452 | -66.15665 | 37068 ft | 475 kts | 50° |
| 2026-04-26 01:30 | 44.81872 | -66.07693 | 37108 ft | 475 kts | 51° |
| 2026-04-26 01:30 | 44.85281 | -65.99721 | 37075 ft | 473 kts | 51° |
| 2026-04-26 01:31 | 44.88670 | -65.91771 | 37079 ft | 473 kts | 51° |
| 2026-04-26 01:31 | 44.92039 | -65.83849 | 37079 ft | 473 kts | 51° |
| 2026-04-26 01:32 | 44.95418 | -65.75882 | 37118 ft | 473 kts | 51° |
| 2026-04-26 01:32 | 44.98790 | -65.67907 | 37081 ft | 471 kts | 52° |
| 2026-04-26 01:33 | 45.02144 | -65.59952 | 37083 ft | 470 kts | 52° |
| 2026-04-26 01:33 | 45.05466 | -65.52053 | 37088 ft | 470 kts | 52° |
| 2026-04-26 01:34 | 45.08805 | -65.44089 | 37078 ft | 470 kts | 52° |
| 2026-04-26 01:34 | 45.12130 | -65.36138 | 37075 ft | 468 kts | 52° |
| 2026-04-26 01:35 | 45.15446 | -65.28183 | 37071 ft | 468 kts | 52° |
| 2026-04-26 01:35 | 45.18749 | -65.20240 | 37069 ft | 468 kts | 52° |
| 2026-04-26 01:36 | 45.22033 | -65.12321 | 37074 ft | 468 kts | 53° |
| 2026-04-26 01:37 | 45.26968 | -65.00375 | 37071 ft | 467 kts | 53° |
| 2026-04-26 01:37 | 45.30240 | -64.92428 | 37070 ft | 467 kts | 53° |
| 2026-04-26 01:38 | 45.33514 | -64.84453 | 37088 ft | 467 kts | 53° |
| 2026-04-26 01:38 | 45.36762 | -64.76520 | 37086 ft | 467 kts | 54° |
| 2026-04-26 01:39 | 45.40027 | -64.68519 | 37061 ft | 466 kts | 54° |
| 2026-04-26 01:39 | 45.43268 | -64.60553 | 37063 ft | 467 kts | 54° |
| 2026-04-26 01:40 | 45.46517 | -64.52547 | 37065 ft | 467 kts | 54° |
| 2026-04-26 01:40 | 45.49764 | -64.44526 | 37074 ft | 467 kts | 54° |
| 2026-04-26 01:41 | 45.53002 | -64.36500 | 37044 ft | 466 kts | 54° |
| 2026-04-26 01:41 | 45.56211 | -64.28524 | 37045 ft | 466 kts | 54° |
| 2026-04-26 01:42 | 45.59433 | -64.20496 | 37039 ft | 466 kts | 54° |
| 2026-04-26 01:42 | 45.62647 | -64.12463 | 37043 ft | 466 kts | 54° |
| 2026-04-26 01:43 | 45.65860 | -64.04406 | 37040 ft | 466 kts | 55° |
| 2026-04-26 01:43 | 45.69065 | -63.96347 | 37039 ft | 466 kts | 55° |
| 2026-04-26 01:44 | 45.72261 | -63.88288 | 37036 ft | 466 kts | 55° |
| 2026-04-26 01:44 | 45.75456 | -63.80206 | 37039 ft | 466 kts | 55° |
| 2026-04-26 01:45 | 45.78648 | -63.72110 | 37036 ft | 466 kts | 55° |
| 2026-04-26 01:45 | 45.81810 | -63.64064 | 37039 ft | 466 kts | 55° |
| 2026-04-26 01:46 | 45.84987 | -63.55959 | 37038 ft | 466 kts | 55° |
| 2026-04-26 01:46 | 45.88163 | -63.47833 | 37040 ft | 466 kts | 55° |
| 2026-04-26 01:47 | 45.91328 | -63.39709 | 37033 ft | 465 kts | 56° |
| 2026-04-26 01:47 | 45.94472 | -63.31611 | 37031 ft | 463 kts | 56° |
| 2026-04-26 01:48 | 45.97608 | -63.23516 | 37026 ft | 463 kts | 56° |
| 2026-04-26 01:48 | 46.00714 | -63.15475 | 37026 ft | 463 kts | 56° |
| 2026-04-26 01:49 | 46.03837 | -63.07365 | 37042 ft | 463 kts | 56° |
| 2026-04-26 01:49 | 46.06949 | -62.99257 | 37031 ft | 462 kts | 56° |
| 2026-04-26 01:50 | 46.10052 | -62.91152 | 37011 ft | 462 kts | 56° |
| 2026-04-26 01:50 | 46.13152 | -62.83029 | 37030 ft | 462 kts | 56° |
| 2026-04-26 01:51 | 46.16226 | -62.74950 | 37008 ft | 462 kts | 56° |
| 2026-04-26 01:51 | 46.19321 | -62.66794 | 37016 ft | 463 kts | 57° |
| 2026-04-26 01:52 | 46.22416 | -62.58612 | 37005 ft | 464 kts | 57° |
| 2026-04-26 01:52 | 46.25502 | -62.50428 | 37006 ft | 464 kts | 57° |
| 2026-04-26 01:53 | 46.28589 | -62.42216 | 37001 ft | 464 kts | 57° |
| 2026-04-26 01:53 | 46.31645 | -62.34059 | 37000 ft | 464 kts | 57° |
| 2026-04-26 01:54 | 46.34704 | -62.25869 | 36991 ft | 461 kts | 57° |
| 2026-04-26 01:54 | 46.37746 | -62.17706 | 36991 ft | 461 kts | 57° |
| 2026-04-26 01:55 | 46.40787 | -62.09520 | 36974 ft | 461 kts | 57° |
| 2026-04-26 01:55 | 46.43822 | -62.01326 | 36988 ft | 461 kts | 57° |
| 2026-04-26 01:56 | 46.46819 | -61.93204 | 36963 ft | 458 kts | 57° |
| 2026-04-26 01:56 | 46.49821 | -61.85047 | 36971 ft | 457 kts | 57° |
| 2026-04-26 01:57 | 46.52811 | -61.76901 | 36948 ft | 457 kts | 58° |
| 2026-04-26 01:57 | 46.55783 | -61.68779 | 36948 ft | 457 kts | 58° |
| 2026-04-26 01:58 | 46.58764 | -61.60606 | 36952 ft | 456 kts | 58° |
| 2026-04-26 01:58 | 46.61725 | -61.52459 | 36944 ft | 455 kts | 58° |
| 2026-04-26 01:59 | 46.64679 | -61.44312 | 36935 ft | 455 kts | 58° |
| 2026-04-26 01:59 | 46.67631 | -61.36145 | 36935 ft | 455 kts | 58° |
| 2026-04-26 02:00 | 46.70564 | -61.28005 | 36944 ft | 455 kts | 58° |
| 2026-04-26 02:00 | 46.73501 | -61.19828 | 36942 ft | 455 kts | 58° |
| 2026-04-26 02:01 | 46.76433 | -61.11640 | 36930 ft | 456 kts | 58° |
| 2026-04-26 02:01 | 46.79370 | -61.03415 | 36928 ft | 457 kts | 58° |
| 2026-04-26 02:02 | 46.82285 | -60.95224 | 36930 ft | 457 kts | 58° |
| 2026-04-26 02:02 | 46.85212 | -60.86975 | 36921 ft | 457 kts | 59° |
| 2026-04-26 02:03 | 46.88137 | -60.78704 | 36921 ft | 458 kts | 59° |
| 2026-04-26 02:03 | 46.91052 | -60.70436 | 36919 ft | 458 kts | 59° |
| 2026-04-26 02:04 | 46.93943 | -60.62207 | 36915 ft | 458 kts | 59° |
| 2026-04-26 02:04 | 46.96854 | -60.53901 | 36905 ft | 458 kts | 59° |
| 2026-04-26 02:05 | 46.99757 | -60.45588 | 36898 ft | 459 kts | 59° |
| 2026-04-26 02:05 | 47.02655 | -60.37264 | 36889 ft | 459 kts | 59° |
| 2026-04-26 02:06 | 47.05550 | -60.28923 | 36886 ft | 459 kts | 59° |
| 2026-04-26 02:06 | 47.08443 | -60.20559 | 36865 ft | 459 kts | 59° |
| 2026-04-26 02:07 | 47.11310 | -60.12245 | 36864 ft | 459 kts | 59° |
| 2026-04-26 02:07 | 47.14187 | -60.03874 | 36859 ft | 459 kts | 59° |
| 2026-04-26 02:08 | 47.17059 | -59.95494 | 36845 ft | 459 kts | 59° |
| 2026-04-26 02:08 | 47.19931 | -59.87087 | 36845 ft | 459 kts | 59° |
| 2026-04-26 02:09 | 47.22791 | -59.78689 | 36844 ft | 459 kts | 60° |
| 2026-04-26 02:09 | 47.25160 | -59.71712 | 36840 ft | 458 kts | 60° |
| 2026-04-26 02:10 | 47.28001 | -59.63311 | 36833 ft | 458 kts | 60° |
| 2026-04-26 02:10 | 47.30843 | -59.54885 | 36822 ft | 460 kts | 59° |
| 2026-04-26 02:11 | 47.33674 | -59.46473 | 36815 ft | 460 kts | 60° |
| 2026-04-26 02:11 | 47.36514 | -59.38005 | 36822 ft | 459 kts | 60° |
| 2026-04-26 02:12 | 47.39339 | -59.29548 | 36814 ft | 458 kts | 60° |
| 2026-04-26 02:12 | 47.42152 | -59.21099 | 36798 ft | 459 kts | 60° |
| 2026-04-26 02:13 | 47.44944 | -59.12686 | 36806 ft | 459 kts | 60° |
| 2026-04-26 02:13 | 47.47749 | -59.04206 | 36790 ft | 459 kts | 61° |
| 2026-04-26 02:14 | 47.50544 | -58.95726 | 36798 ft | 457 kts | 61° |
| 2026-04-26 02:14 | 47.53307 | -58.87316 | 36785 ft | 456 kts | 61° |
| 2026-04-26 02:15 | 47.56077 | -58.78864 | 36774 ft | 456 kts | 61° |
| 2026-04-26 02:15 | 47.58836 | -58.70413 | 36771 ft | 456 kts | 62° |
| 2026-04-26 02:16 | 47.61596 | -58.61929 | 36760 ft | 455 kts | 60° |
| 2026-04-26 02:16 | 47.64321 | -58.53523 | 36752 ft | 454 kts | 61° |
| 2026-04-26 02:17 | 47.67059 | -58.45058 | 36755 ft | 455 kts | 61° |
| 2026-04-26 02:17 | 47.69784 | -58.36603 | 36746 ft | 454 kts | 62° |
| 2026-04-26 02:18 | 47.72508 | -58.28121 | 36736 ft | 454 kts | 61° |
| 2026-04-26 02:18 | 47.75225 | -58.19627 | 36733 ft | 452 kts | 61° |
| 2026-04-26 02:19 | 47.77905 | -58.11224 | 36731 ft | 452 kts | 60° |
| 2026-04-26 02:19 | 47.80594 | -58.02763 | 36735 ft | 452 kts | 61° |
| 2026-04-26 02:20 | 47.83286 | -57.94267 | 36716 ft | 455 kts | 62° |
| 2026-04-26 02:20 | 47.85988 | -57.85718 | 36719 ft | 455 kts | 62° |
| 2026-04-26 02:21 | 47.88658 | -57.77232 | 36717 ft | 454 kts | 61° |
| 2026-04-26 02:21 | 47.91328 | -57.68722 | 36709 ft | 453 kts | 62° |
| 2026-04-26 02:22 | 47.93996 | -57.60187 | 36704 ft | 453 kts | 62° |
| 2026-04-26 02:22 | 47.96640 | -57.51700 | 36704 ft | 453 kts | 62° |
| 2026-04-26 02:23 | 47.99293 | -57.43153 | 36704 ft | 454 kts | 63° |
| 2026-04-26 02:23 | 48.01946 | -57.34581 | 36697 ft | 454 kts | 62° |
| 2026-04-26 02:24 | 48.04574 | -57.26059 | 36693 ft | 455 kts | 63° |
| 2026-04-26 02:24 | 48.07216 | -57.17460 | 36706 ft | 454 kts | 63° |
| 2026-04-26 02:25 | 48.09843 | -57.08878 | 36698 ft | 453 kts | 62° |
| 2026-04-26 02:25 | 48.12462 | -57.00296 | 36661 ft | 452 kts | 62° |
| 2026-04-26 02:26 | 48.15046 | -56.91797 | 36661 ft | 451 kts | 63° |
| 2026-04-26 02:26 | 48.17642 | -56.83235 | 36650 ft | 451 kts | 62° |
| 2026-04-26 02:27 | 48.20232 | -56.74660 | 36652 ft | 452 kts | 63° |
| 2026-04-26 02:27 | 48.22819 | -56.66063 | 36622 ft | 452 kts | 62° |
| 2026-04-26 02:28 | 48.25399 | -56.57464 | 36619 ft | 451 kts | 62° |
| 2026-04-26 02:28 | 48.27972 | -56.48859 | 36623 ft | 451 kts | 63° |
| 2026-04-26 02:29 | 48.30534 | -56.40256 | 36623 ft | 451 kts | 63° |
| 2026-04-26 02:29 | 48.33093 | -56.31633 | 36613 ft | 451 kts | 63° |
| 2026-04-26 02:30 | 48.35629 | -56.23055 | 36608 ft | 452 kts | 62° |
| 2026-04-26 02:30 | 48.38176 | -56.14408 | 36615 ft | 452 kts | 62° |
| 2026-04-26 02:31 | 48.40714 | -56.05761 | 36615 ft | 452 kts | 63° |
| 2026-04-26 02:31 | 48.43250 | -55.97100 | 36597 ft | 452 kts | 63° |
| 2026-04-26 02:32 | 48.45762 | -55.88493 | 36602 ft | 452 kts | 64° |
| 2026-04-26 02:32 | 48.48285 | -55.79809 | 36604 ft | 451 kts | 63° |
| 2026-04-26 02:33 | 48.50791 | -55.71148 | 36602 ft | 451 kts | 63° |
| 2026-04-26 02:33 | 48.53140 | -55.63009 | 36588 ft | 451 kts | 63° |
| 2026-04-26 02:34 | 48.55637 | -55.54326 | 36589 ft | 451 kts | 63° |
| 2026-04-26 02:34 | 48.58127 | -55.45634 | 36597 ft | 451 kts | 64° |
| 2026-04-26 02:35 | 48.60616 | -55.36915 | 36593 ft | 452 kts | 64° |
| 2026-04-26 02:35 | 48.63087 | -55.28228 | 36578 ft | 452 kts | 64° |
| 2026-04-26 02:36 | 48.65565 | -55.19482 | 36573 ft | 452 kts | 64° |
| 2026-04-26 02:36 | 48.68040 | -55.10719 | 36576 ft | 452 kts | 64° |
| 2026-04-26 02:37 | 48.70504 | -55.01957 | 36580 ft | 452 kts | 64° |
| 2026-04-26 02:37 | 48.72964 | -54.93179 | 36551 ft | 452 kts | 64° |
| 2026-04-26 02:38 | 48.75403 | -54.84445 | 36552 ft | 452 kts | 64° |
| 2026-04-26 02:38 | 48.77846 | -54.75664 | 36548 ft | 452 kts | 65° |
| 2026-04-26 02:39 | 48.80285 | -54.66863 | 36546 ft | 452 kts | 64° |
| 2026-04-26 02:39 | 48.82718 | -54.58052 | 36556 ft | 452 kts | 65° |
| 2026-04-26 02:40 | 48.85152 | -54.49207 | 36543 ft | 454 kts | 65° |
| 2026-04-26 02:40 | 48.87563 | -54.40411 | 36541 ft | 454 kts | 65° |
| 2026-04-26 02:41 | 48.89988 | -54.31532 | 36537 ft | 454 kts | 65° |
| 2026-04-26 02:41 | 48.92401 | -54.22658 | 36529 ft | 454 kts | 65° |
| 2026-04-26 02:42 | 48.94813 | -54.13758 | 36520 ft | 454 kts | 65° |
| 2026-04-26 02:42 | 48.97210 | -54.04878 | 36520 ft | 453 kts | 65° |
| 2026-04-26 02:43 | 49.00782 | -53.91586 | 36519 ft | 453 kts | 65° |
| 2026-04-26 02:43 | 49.03161 | -53.82688 | 36500 ft | 453 kts | 65° |
| 2026-04-26 02:44 | 49.05536 | -53.73772 | 36505 ft | 453 kts | 65° |
| 2026-04-26 02:44 | 49.07889 | -53.64908 | 36496 ft | 452 kts | 65° |
| 2026-04-26 02:45 | 49.10241 | -53.56008 | 36499 ft | 452 kts | 65° |
| 2026-04-26 02:45 | 49.12588 | -53.47095 | 36486 ft | 453 kts | 65° |
| 2026-04-26 02:46 | 49.14934 | -53.38153 | 36483 ft | 453 kts | 65° |
| 2026-04-26 02:46 | 49.17270 | -53.29211 | 36485 ft | 452 kts | 65° |
| 2026-04-26 02:47 | 49.19582 | -53.20326 | 36481 ft | 452 kts | 65° |
| 2026-04-26 02:47 | 49.21905 | -53.11367 | 36464 ft | 452 kts | 66° |
| 2026-04-26 02:48 | 49.24217 | -53.02417 | 36463 ft | 452 kts | 66° |
| 2026-04-26 02:48 | 49.26524 | -52.93448 | 36462 ft | 452 kts | 66° |
| 2026-04-26 02:49 | 49.28824 | -52.84470 | 36463 ft | 452 kts | 66° |
| 2026-04-26 02:49 | 49.31106 | -52.75530 | 36457 ft | 454 kts | 66° |
| 2026-04-26 02:50 | 49.33414 | -52.66453 | 36453 ft | 457 kts | 66° |
| 2026-04-26 02:50 | 49.35713 | -52.57371 | 36441 ft | 457 kts | 66° |
| 2026-04-26 02:51 | 49.38013 | -52.48249 | 36444 ft | 457 kts | 66° |
| 2026-04-26 02:51 | 49.40289 | -52.39187 | 36438 ft | 458 kts | 66° |
| 2026-04-26 02:52 | 49.42572 | -52.30058 | 36436 ft | 458 kts | 67° |
| 2026-04-26 02:52 | 49.44848 | -52.20920 | 36432 ft | 458 kts | 67° |
| 2026-04-26 02:53 | 49.47120 | -52.11763 | 36434 ft | 458 kts | 67° |
| 2026-04-26 02:53 | 49.49370 | -52.02655 | 36429 ft | 458 kts | 67° |
| 2026-04-26 02:54 | 49.51685 | -51.93514 | 36428 ft | 458 kts | 66° |
| 2026-04-26 02:54 | 49.54059 | -51.84419 | 36424 ft | 458 kts | 66° |
| 2026-04-26 02:55 | 49.56444 | -51.75274 | 36422 ft | 460 kts | 66° |
| 2026-04-26 02:55 | 49.58818 | -51.66094 | 36417 ft | 461 kts | 66° |
| 2026-04-26 02:56 | 49.61165 | -51.56962 | 36418 ft | 461 kts | 66° |
| 2026-04-26 02:56 | 49.63517 | -51.47764 | 36412 ft | 460 kts | 66° |
| 2026-04-26 02:57 | 49.65858 | -51.38575 | 36410 ft | 460 kts | 66° |
| 2026-04-26 02:57 | 49.68198 | -51.29355 | 36412 ft | 460 kts | 66° |
| 2026-04-26 02:58 | 49.70134 | -51.21698 | 36410 ft | 460 kts | 66° |
| 2026-04-26 02:58 | 49.72833 | -51.10978 | 36415 ft | 460 kts | 67° |
| 2026-04-26 02:59 | 49.75147 | -51.01747 | 36408 ft | 460 kts | 67° |
| 2026-04-26 02:59 | 49.77075 | -50.94027 | 36408 ft | 460 kts | 67° |
| 2026-04-26 03:00 | 49.79359 | -50.84844 | 36410 ft | 460 kts | 67° |
| 2026-04-26 03:00 | 49.81658 | -50.75567 | 36407 ft | 462 kts | 67° |
| 2026-04-26 03:01 | 49.83953 | -50.66265 | 36405 ft | 462 kts | 68° |
| 2026-04-26 03:01 | 49.86229 | -50.57003 | 36405 ft | 462 kts | 68° |
| 2026-04-26 03:02 | 49.88507 | -50.47689 | 36403 ft | 462 kts | 68° |
| 2026-04-26 03:02 | 49.90781 | -50.38357 | 36406 ft | 462 kts | 68° |
| 2026-04-26 03:03 | 49.93049 | -50.29005 | 36402 ft | 462 kts | 68° |
| 2026-04-26 03:03 | 49.95291 | -50.19727 | 36400 ft | 462 kts | 68° |
| 2026-04-26 03:04 | 49.96419 | -50.15043 | 36529 ft | 463 kts | 68° |
| 2026-04-26 03:04 | 49.97545 | -50.10355 | 36735 ft | 463 kts | 68° |
| 2026-04-26 03:04 | 49.98674 | -50.05646 | 36916 ft | 463 kts | 68° |
| 2026-04-26 03:04 | 49.99798 | -50.00954 | 37084 ft | 463 kts | 68° |
| 2026-04-26 03:05 | 50.00944 | -49.96272 | 37239 ft | 463 kts | 68° |
| 2026-04-26 03:05 | 50.02113 | -49.91601 | 37417 ft | 464 kts | 67° |
| 2026-04-26 03:05 | 50.03280 | -49.86986 | 37577 ft | 464 kts | 67° |
| 2026-04-26 03:05 | 50.04462 | -49.82315 | 37738 ft | 464 kts | 67° |
| 2026-04-26 03:06 | 50.05644 | -49.77632 | 37915 ft | 464 kts | 68° |
| 2026-04-26 03:06 | 50.06822 | -49.72947 | 38071 ft | 464 kts | 68° |
| 2026-04-26 03:06 | 50.07996 | -49.68255 | 38186 ft | 464 kts | 67° |
| 2026-04-26 03:06 | 50.09162 | -49.63580 | 38309 ft | 464 kts | 68° |
| 2026-04-26 03:07 | 50.11498 | -49.54174 | 38398 ft | 465 kts | 68° |
| 2026-04-26 03:07 | 50.13808 | -49.44825 | 38403 ft | 465 kts | 68° |
| 2026-04-26 03:08 | 50.16126 | -49.35408 | 38405 ft | 464 kts | 68° |
| 2026-04-26 03:08 | 50.18431 | -49.26007 | 38399 ft | 464 kts | 68° |
| 2026-04-26 03:09 | 50.20732 | -49.16581 | 38398 ft | 468 kts | 68° |
| 2026-04-26 03:09 | 50.23047 | -49.07060 | 38399 ft | 469 kts | 68° |
| 2026-04-26 03:10 | 50.25357 | -48.97518 | 38401 ft | 469 kts | 68° |
| 2026-04-26 03:10 | 50.27661 | -48.87955 | 38408 ft | 469 kts | 69° |
| 2026-04-26 03:11 | 50.29953 | -48.78403 | 38402 ft | 470 kts | 69° |
| 2026-04-26 03:11 | 50.32229 | -48.68873 | 38403 ft | 471 kts | 69° |
| 2026-04-26 03:12 | 50.34515 | -48.59260 | 38409 ft | 471 kts | 69° |
| 2026-04-26 03:12 | 50.36793 | -48.49639 | 38406 ft | 470 kts | 69° |
| 2026-04-26 03:13 | 50.39060 | -48.40023 | 38404 ft | 470 kts | 69° |
| 2026-04-26 03:13 | 50.41164 | -48.31057 | 38408 ft | 471 kts | 70° |
| 2026-04-26 03:14 | 50.43412 | -48.21407 | 38405 ft | 470 kts | 70° |
| 2026-04-26 03:14 | 50.45648 | -48.11772 | 38418 ft | 470 kts | 70° |
| 2026-04-26 03:15 | 50.47885 | -48.02135 | 38415 ft | 470 kts | 70° |
| 2026-04-26 03:15 | 50.50106 | -47.92527 | 38410 ft | 469 kts | 70° |
| 2026-04-26 03:16 | 50.52323 | -47.82877 | 38413 ft | 470 kts | 70° |
| 2026-04-26 03:16 | 50.54531 | -47.73215 | 38420 ft | 470 kts | 70° |
| 2026-04-26 03:17 | 50.56737 | -47.63512 | 38420 ft | 471 kts | 71° |
| 2026-04-26 03:17 | 50.58921 | -47.53864 | 38422 ft | 471 kts | 71° |
| 2026-04-26 03:18 | 50.61111 | -47.44144 | 38424 ft | 470 kts | 71° |
| 2026-04-26 03:18 | 50.63295 | -47.34409 | 38422 ft | 470 kts | 71° |
| 2026-04-26 03:19 | 50.65466 | -47.24684 | 38425 ft | 470 kts | 71° |
| 2026-04-26 03:19 | 50.67617 | -47.15004 | 38426 ft | 471 kts | 71° |
| 2026-04-26 03:20 | 50.69775 | -47.05252 | 38425 ft | 470 kts | 71° |
| 2026-04-26 03:20 | 50.71916 | -46.95525 | 38424 ft | 469 kts | 72° |
| 2026-04-26 03:21 | 50.74050 | -46.85788 | 38430 ft | 469 kts | 71° |
| 2026-04-26 03:21 | 50.76174 | -46.76047 | 38424 ft | 469 kts | 72° |
| 2026-04-26 03:22 | 50.78290 | -46.66302 | 38430 ft | 469 kts | 71° |
| 2026-04-26 03:22 | 50.80389 | -46.56583 | 38434 ft | 470 kts | 72° |
| 2026-04-26 03:23 | 50.82499 | -46.46771 | 38434 ft | 471 kts | 73° |
| 2026-04-26 03:23 | 50.84600 | -46.36952 | 38435 ft | 471 kts | 73° |
| 2026-04-26 03:24 | 50.86693 | -46.27123 | 38441 ft | 471 kts | 73° |
| 2026-04-26 03:24 | 50.88774 | -46.17299 | 38439 ft | 470 kts | 73° |
| 2026-04-26 03:25 | 50.90697 | -46.08183 | 38449 ft | 470 kts | 73° |
| 2026-04-26 03:25 | 50.92762 | -45.98322 | 38451 ft | 471 kts | 73° |
| 2026-04-26 03:26 | 50.94825 | -45.88449 | 38450 ft | 470 kts | 73° |
| 2026-04-26 03:26 | 50.96877 | -45.78594 | 38453 ft | 470 kts | 73° |
| 2026-04-26 03:27 | 50.98918 | -45.68729 | 38448 ft | 470 kts | 73° |
| 2026-04-26 03:27 | 51.00954 | -45.58844 | 38456 ft | 470 kts | 73° |
| 2026-04-26 03:28 | 51.02979 | -45.48958 | 38456 ft | 471 kts | 74° |
| 2026-04-26 03:28 | 51.04998 | -45.39045 | 38462 ft | 471 kts | 74° |
| 2026-04-26 03:29 | 51.07001 | -45.29171 | 38462 ft | 471 kts | 74° |
| 2026-04-26 03:29 | 51.09006 | -45.19230 | 38460 ft | 471 kts | 74° |
| 2026-04-26 03:30 | 51.10988 | -45.09359 | 38465 ft | 471 kts | 74° |
| 2026-04-26 03:30 | 51.12973 | -44.99416 | 38467 ft | 471 kts | 75° |
| 2026-04-26 03:31 | 51.14950 | -44.89468 | 38465 ft | 471 kts | 75° |
| 2026-04-26 03:31 | 51.16917 | -44.79518 | 38471 ft | 471 kts | 75° |
| 2026-04-26 03:32 | 51.18873 | -44.69569 | 38467 ft | 471 kts | 75° |
| 2026-04-26 03:32 | 51.20824 | -44.59602 | 38464 ft | 470 kts | 75° |
| 2026-04-26 03:33 | 51.22762 | -44.49641 | 38468 ft | 470 kts | 75° |
| 2026-04-26 03:33 | 51.24693 | -44.39671 | 38482 ft | 470 kts | 75° |
| 2026-04-26 03:34 | 51.26606 | -44.29734 | 38470 ft | 471 kts | 75° |
| 2026-04-26 03:34 | 51.28524 | -44.19726 | 38472 ft | 471 kts | 76° |
| 2026-04-26 03:35 | 51.30435 | -44.09699 | 38477 ft | 471 kts | 76° |
| 2026-04-26 03:35 | 51.32334 | -43.99677 | 38476 ft | 471 kts | 76° |
| 2026-04-26 03:36 | 51.34215 | -43.89704 | 38478 ft | 471 kts | 76° |
| 2026-04-26 03:36 | 51.36099 | -43.79659 | 38465 ft | 471 kts | 76° |
| 2026-04-26 03:37 | 51.37971 | -43.69625 | 38479 ft | 470 kts | 76° |
| 2026-04-26 03:37 | 51.39831 | -43.59581 | 38477 ft | 470 kts | 76° |
| 2026-04-26 03:38 | 51.41683 | -43.49544 | 38475 ft | 470 kts | 76° |
| 2026-04-26 03:38 | 51.43531 | -43.39489 | 38476 ft | 470 kts | 76° |
| 2026-04-26 03:39 | 51.45356 | -43.29494 | 38460 ft | 470 kts | 77° |
| 2026-04-26 03:39 | 51.47188 | -43.19406 | 38474 ft | 471 kts | 77° |
| 2026-04-26 03:40 | 51.49009 | -43.09313 | 38472 ft | 471 kts | 77° |
| 2026-04-26 03:40 | 51.50817 | -42.99240 | 38477 ft | 471 kts | 77° |
| 2026-04-26 03:41 | 51.52622 | -42.89134 | 38472 ft | 471 kts | 77° |
| 2026-04-26 03:41 | 51.54417 | -42.79029 | 38472 ft | 468 kts | 77° |
| 2026-04-26 03:42 | 51.56199 | -42.68936 | 38472 ft | 470 kts | 77° |
| 2026-04-26 03:42 | 51.57962 | -42.58886 | 38471 ft | 470 kts | 77° |
| 2026-04-26 03:43 | 51.59731 | -42.48744 | 38468 ft | 470 kts | 77° |
| 2026-04-26 03:43 | 51.61493 | -42.38595 | 38468 ft | 470 kts | 77° |
| 2026-04-26 03:44 | 51.63247 | -42.28433 | 38473 ft | 471 kts | 78° |
| 2026-04-26 03:44 | 51.64980 | -42.18335 | 38459 ft | 471 kts | 78° |
| 2026-04-26 03:45 | 51.66716 | -42.08154 | 38462 ft | 471 kts | 78° |
| 2026-04-26 03:45 | 51.68445 | -41.97957 | 38466 ft | 472 kts | 78° |
| 2026-04-26 03:46 | 51.70166 | -41.87748 | 38462 ft | 472 kts | 78° |
| 2026-04-26 03:47 | 51.72726 | -41.72454 | 38462 ft | 473 kts | 78° |
| 2026-04-26 03:47 | 51.74432 | -41.62182 | 38462 ft | 473 kts | 79° |
| 2026-04-26 03:48 | 51.76127 | -41.51914 | 38460 ft | 473 kts | 79° |
| 2026-04-26 03:48 | 51.77702 | -41.42310 | 38460 ft | 474 kts | 79° |
| 2026-04-26 03:49 | 51.79382 | -41.32019 | 38439 ft | 473 kts | 79° |
| 2026-04-26 03:49 | 51.80772 | -41.23457 | 38456 ft | 473 kts | 79° |
| 2026-04-26 03:50 | 51.82704 | -41.11481 | 38457 ft | 473 kts | 79° |
| 2026-04-26 03:50 | 51.84088 | -41.02845 | 38456 ft | 473 kts | 79° |
| 2026-04-26 03:51 | 51.85720 | -40.92602 | 38442 ft | 473 kts | 79° |
| 2026-04-26 03:51 | 51.87361 | -40.82236 | 38442 ft | 475 kts | 80° |
| 2026-04-26 03:52 | 51.88993 | -40.71866 | 38457 ft | 476 kts | 80° |
| 2026-04-26 03:52 | 51.90610 | -40.61531 | 38458 ft | 475 kts | 80° |
| 2026-04-26 03:53 | 51.92227 | -40.51127 | 38462 ft | 475 kts | 80° |
| 2026-04-26 03:53 | 51.93831 | -40.40734 | 38462 ft | 475 kts | 80° |
| 2026-04-26 03:54 | 51.95429 | -40.30321 | 38448 ft | 475 kts | 80° |
| 2026-04-26 03:54 | 51.97016 | -40.19912 | 38463 ft | 475 kts | 81° |
| 2026-04-26 03:55 | 51.98597 | -40.09475 | 38464 ft | 475 kts | 81° |
| 2026-04-26 03:55 | 52.00341 | -39.99188 | 38463 ft | 479 kts | 74° |
| 2026-04-26 03:56 | 52.02744 | -39.89085 | 38464 ft | 480 kts | 72° |
| 2026-04-26 03:56 | 52.05270 | -39.79028 | 38466 ft | 481 kts | 72° |
| 2026-04-26 03:57 | 52.07816 | -39.68940 | 38457 ft | 482 kts | 72° |
| 2026-04-26 03:57 | 52.10346 | -39.58820 | 38470 ft | 482 kts | 72° |
| 2026-04-26 03:58 | 52.12838 | -39.48772 | 38455 ft | 482 kts | 73° |
| 2026-04-26 03:58 | 52.15340 | -39.38618 | 38442 ft | 484 kts | 73° |
| 2026-04-26 03:59 | 52.17844 | -39.28415 | 38459 ft | 485 kts | 73° |
| 2026-04-26 03:59 | 52.20342 | -39.18193 | 38453 ft | 485 kts | 73° |
| 2026-04-26 04:00 | 52.22828 | -39.07972 | 38454 ft | 485 kts | 73° |
| 2026-04-26 04:00 | 52.25292 | -38.97795 | 38456 ft | 485 kts | 73° |
| 2026-04-26 04:02 | 52.27389 | -38.89089 | 38451 ft | 486 kts | 73° |
| 2026-04-26 04:03 | 52.29839 | -38.78874 | 38454 ft | 486 kts | 74° |
| 2026-04-26 04:03 | 52.32302 | -38.68562 | 38454 ft | 486 kts | 74° |
| 2026-04-26 04:04 | 52.34752 | -38.58251 | 38456 ft | 486 kts | 74° |
| 2026-04-26 04:04 | 52.37196 | -38.47932 | 38444 ft | 486 kts | 74° |
| 2026-04-26 04:05 | 52.39617 | -38.37647 | 38455 ft | 486 kts | 74° |
| 2026-04-26 04:05 | 52.42042 | -38.27295 | 38472 ft | 486 kts | 74° |
| 2026-04-26 04:06 | 52.44459 | -38.16934 | 38470 ft | 486 kts | 74° |
| 2026-04-26 04:06 | 52.46861 | -38.06587 | 38483 ft | 486 kts | 74° |
| 2026-04-26 04:07 | 52.49259 | -37.96206 | 38470 ft | 486 kts | 74° |
| 2026-04-26 04:07 | 52.51647 | -37.85812 | 38500 ft | 486 kts | 74° |
| 2026-04-26 04:08 | 52.54013 | -37.75469 | 38504 ft | 486 kts | 75° |
| 2026-04-26 04:08 | 52.56385 | -37.65044 | 38489 ft | 486 kts | 75° |
| 2026-04-26 04:09 | 52.58744 | -37.54624 | 38498 ft | 486 kts | 75° |
| 2026-04-26 04:09 | 52.61078 | -37.44265 | 38503 ft | 485 kts | 75° |
| 2026-04-26 04:10 | 52.63415 | -37.33846 | 38513 ft | 485 kts | 75° |
| 2026-04-26 04:10 | 52.65748 | -37.23385 | 38515 ft | 485 kts | 75° |
| 2026-04-26 04:11 | 52.68067 | -37.12938 | 38516 ft | 485 kts | 75° |
| 2026-04-26 04:11 | 52.70368 | -37.02519 | 38528 ft | 486 kts | 75° |
| 2026-04-26 04:12 | 52.72675 | -36.92020 | 38536 ft | 486 kts | 75° |
| 2026-04-26 04:12 | 52.74966 | -36.81543 | 38545 ft | 486 kts | 75° |
| 2026-04-26 04:13 | 52.77252 | -36.71036 | 38543 ft | 486 kts | 75° |
| 2026-04-26 04:13 | 52.79528 | -36.60517 | 38551 ft | 486 kts | 75° |
| 2026-04-26 04:14 | 52.81795 | -36.49986 | 38553 ft | 487 kts | 75° |
| 2026-04-26 04:14 | 52.84061 | -36.39408 | 38561 ft | 487 kts | 75° |
| 2026-04-26 04:15 | 52.86303 | -36.28891 | 38564 ft | 487 kts | 75° |
| 2026-04-26 04:15 | 52.88470 | -36.18666 | 38578 ft | 487 kts | 75° |
| 2026-04-26 04:16 | 52.90706 | -36.08064 | 38587 ft | 487 kts | 75° |
| 2026-04-26 04:16 | 52.92920 | -35.97515 | 38590 ft | 487 kts | 75° |
| 2026-04-26 04:17 | 52.95133 | -35.86912 | 38602 ft | 487 kts | 75° |
| 2026-04-26 04:17 | 52.97334 | -35.76306 | 38600 ft | 486 kts | 76° |
| 2026-04-26 04:18 | 52.99527 | -35.65673 | 38602 ft | 486 kts | 76° |
| 2026-04-26 04:18 | 53.01706 | -35.55046 | 38610 ft | 485 kts | 76° |
| 2026-04-26 04:19 | 53.03873 | -35.44432 | 38623 ft | 485 kts | 76° |
| 2026-04-26 04:19 | 53.06019 | -35.33867 | 38605 ft | 485 kts | 76° |
| 2026-04-26 04:20 | 53.08173 | -35.23225 | 38637 ft | 486 kts | 76° |
| 2026-04-26 04:20 | 53.10321 | -35.12547 | 38648 ft | 488 kts | 75° |
| 2026-04-26 04:21 | 53.12466 | -35.01828 | 38650 ft | 488 kts | 76° |
| 2026-04-26 04:21 | 53.14600 | -34.91093 | 38661 ft | 488 kts | 76° |
| 2026-04-26 04:22 | 53.16727 | -34.80336 | 38661 ft | 488 kts | 76° |
| 2026-04-26 04:22 | 53.18843 | -34.69580 | 38668 ft | 489 kts | 75° |
| 2026-04-26 04:23 | 53.20957 | -34.58763 | 38676 ft | 491 kts | 76° |
| 2026-04-26 04:23 | 53.23049 | -34.48002 | 38684 ft | 491 kts | 76° |
| 2026-04-26 04:24 | 53.25146 | -34.37157 | 38685 ft | 491 kts | 76° |
| 2026-04-26 04:24 | 53.27235 | -34.26291 | 38702 ft | 491 kts | 76° |
| 2026-04-26 04:25 | 53.29300 | -34.15486 | 38711 ft | 490 kts | 75° |
| 2026-04-26 04:25 | 53.31362 | -34.04646 | 38710 ft | 489 kts | 75° |
| 2026-04-26 04:26 | 53.33414 | -33.93790 | 38725 ft | 489 kts | 75° |
| 2026-04-26 04:26 | 53.35453 | -33.82936 | 38730 ft | 489 kts | 76° |
| 2026-04-26 04:27 | 53.37482 | -33.72066 | 38731 ft | 487 kts | 75° |
| 2026-04-26 04:27 | 53.39476 | -33.61330 | 38745 ft | 483 kts | 75° |
| 2026-04-26 04:28 | 53.41460 | -33.50583 | 38756 ft | 482 kts | 75° |
| 2026-04-26 04:28 | 53.43434 | -33.39828 | 38748 ft | 482 kts | 75° |
| 2026-04-26 04:29 | 53.45385 | -33.29134 | 38771 ft | 482 kts | 75° |
| 2026-04-26 04:29 | 53.47339 | -33.18371 | 38759 ft | 482 kts | 76° |
| 2026-04-26 04:30 | 53.49283 | -33.07592 | 38779 ft | 483 kts | 76° |
| 2026-04-26 04:30 | 53.51225 | -32.96765 | 38779 ft | 484 kts | 76° |
| 2026-04-26 04:31 | 53.53153 | -32.85953 | 38777 ft | 485 kts | 76° |
| 2026-04-26 04:31 | 53.55083 | -32.75064 | 38792 ft | 484 kts | 76° |
| 2026-04-26 04:32 | 53.56990 | -32.64238 | 38793 ft | 482 kts | 76° |
| 2026-04-26 04:32 | 53.58874 | -32.53473 | 38809 ft | 482 kts | 76° |
| 2026-04-26 04:33 | 53.60756 | -32.42651 | 38810 ft | 482 kts | 76° |
| 2026-04-26 04:33 | 53.62630 | -32.31818 | 38821 ft | 482 kts | 76° |
| 2026-04-26 04:34 | 53.64493 | -32.20979 | 38820 ft | 481 kts | 76° |
| 2026-04-26 04:34 | 53.66345 | -32.10138 | 38835 ft | 480 kts | 76° |
| 2026-04-26 04:35 | 53.68175 | -31.99365 | 38835 ft | 480 kts | 76° |
| 2026-04-26 04:35 | 53.70008 | -31.88501 | 38848 ft | 480 kts | 76° |
| 2026-04-26 04:36 | 53.71829 | -31.77654 | 38855 ft | 480 kts | 76° |
| 2026-04-26 04:36 | 53.73649 | -31.66728 | 38863 ft | 484 kts | 76° |
| 2026-04-26 04:37 | 53.75468 | -31.55740 | 38873 ft | 486 kts | 76° |
| 2026-04-26 04:37 | 53.77268 | -31.44798 | 38873 ft | 486 kts | 76° |
| 2026-04-26 04:38 | 53.79069 | -31.33782 | 38881 ft | 486 kts | 76° |
| 2026-04-26 04:38 | 53.80859 | -31.22763 | 38879 ft | 486 kts | 76° |
| 2026-04-26 04:39 | 53.82644 | -31.11696 | 38892 ft | 488 kts | 76° |
| 2026-04-26 04:39 | 53.84424 | -31.00591 | 38892 ft | 488 kts | 77° |
| 2026-04-26 04:40 | 53.86184 | -30.89551 | 38906 ft | 488 kts | 77° |
| 2026-04-26 04:40 | 53.87942 | -30.78444 | 38905 ft | 488 kts | 76° |
| 2026-04-26 04:41 | 53.89691 | -30.67312 | 38918 ft | 489 kts | 76° |
| 2026-04-26 04:41 | 53.91432 | -30.56153 | 38927 ft | 489 kts | 76° |
| 2026-04-26 04:42 | 53.93158 | -30.45016 | 38926 ft | 492 kts | 77° |
| 2026-04-26 04:42 | 53.94895 | -30.33738 | 38938 ft | 493 kts | 77° |
| 2026-04-26 04:43 | 53.96618 | -30.22480 | 38934 ft | 493 kts | 76° |
| 2026-04-26 04:43 | 53.98337 | -30.11160 | 38947 ft | 495 kts | 77° |
| 2026-04-26 04:44 | 54.00181 | -29.99942 | 38945 ft | 496 kts | 70° |
| 2026-04-26 04:44 | 54.02751 | -29.89047 | 38955 ft | 496 kts | 68° |
| 2026-04-26 04:45 | 54.05280 | -29.78935 | 38955 ft | 498 kts | 67° |
| 2026-04-26 04:45 | 54.08001 | -29.68148 | 38968 ft | 498 kts | 67° |
| 2026-04-26 04:46 | 54.10718 | -29.57287 | 38974 ft | 498 kts | 67° |
| 2026-04-26 04:46 | 54.13414 | -29.46403 | 38974 ft | 498 kts | 67° |
| 2026-04-26 04:47 | 54.16100 | -29.35490 | 38984 ft | 498 kts | 68° |
| 2026-04-26 04:47 | 54.18779 | -29.24549 | 38985 ft | 499 kts | 67° |
| 2026-04-26 04:48 | 54.22785 | -29.08092 | 38990 ft | 501 kts | 68° |
| 2026-04-26 04:48 | 54.25431 | -28.97153 | 38993 ft | 501 kts | 68° |
| 2026-04-26 04:49 | 54.28088 | -28.86116 | 38996 ft | 500 kts | 68° |
| 2026-04-26 04:49 | 54.30727 | -28.75094 | 39004 ft | 500 kts | 68° |
| 2026-04-26 04:50 | 54.33359 | -28.64051 | 39007 ft | 500 kts | 68° |
| 2026-04-26 04:50 | 54.35965 | -28.53070 | 39007 ft | 500 kts | 68° |
| 2026-04-26 04:51 | 54.38574 | -28.42014 | 39015 ft | 500 kts | 68° |
| 2026-04-26 04:51 | 54.41174 | -28.30933 | 39015 ft | 500 kts | 68° |
| 2026-04-26 04:52 | 54.43749 | -28.19900 | 39021 ft | 500 kts | 68° |
| 2026-04-26 04:52 | 54.45895 | -28.10662 | 39021 ft | 500 kts | 68° |
| 2026-04-26 04:53 | 54.48463 | -27.99555 | 39021 ft | 500 kts | 68° |
| 2026-04-26 04:53 | 54.51018 | -27.88447 | 39021 ft | 500 kts | 68° |
| 2026-04-26 04:54 | 54.53565 | -27.77310 | 39020 ft | 499 kts | 68° |
| 2026-04-26 04:54 | 54.56103 | -27.66160 | 39029 ft | 498 kts | 68° |
| 2026-04-26 04:55 | 54.58606 | -27.55105 | 39029 ft | 498 kts | 68° |
| 2026-04-26 04:55 | 54.61114 | -27.43968 | 39031 ft | 498 kts | 68° |
| 2026-04-26 04:56 | 54.63616 | -27.32797 | 39031 ft | 498 kts | 68° |
| 2026-04-26 04:56 | 54.66107 | -27.21615 | 39037 ft | 498 kts | 68° |
| 2026-04-26 04:57 | 54.68574 | -27.10482 | 39037 ft | 498 kts | 69° |
| 2026-04-26 04:57 | 54.71042 | -26.99289 | 39040 ft | 498 kts | 69° |
| 2026-04-26 04:58 | 54.73498 | -26.88083 | 39046 ft | 498 kts | 69° |
| 2026-04-26 04:58 | 54.75947 | -26.76853 | 39045 ft | 500 kts | 69° |
| 2026-04-26 04:59 | 54.78398 | -26.65550 | 39045 ft | 500 kts | 69° |
| 2026-04-26 04:59 | 54.80821 | -26.54319 | 39045 ft | 500 kts | 69° |
| 2026-04-26 05:00 | 54.83246 | -26.43010 | 39053 ft | 500 kts | 69° |
| 2026-04-26 05:00 | 54.85664 | -26.31672 | 39053 ft | 501 kts | 69° |
| 2026-04-26 05:01 | 54.88072 | -26.20322 | 39053 ft | 501 kts | 69° |
| 2026-04-26 05:01 | 54.90471 | -26.08947 | 39056 ft | 501 kts | 69° |
| 2026-04-26 05:02 | 54.92857 | -25.97572 | 39056 ft | 501 kts | 69° |
| 2026-04-26 05:02 | 54.95219 | -25.86246 | 39059 ft | 501 kts | 69° |
| 2026-04-26 05:03 | 54.97585 | -25.74840 | 39058 ft | 501 kts | 69° |
| 2026-04-26 05:03 | 54.99943 | -25.63404 | 39058 ft | 501 kts | 69° |
| 2026-04-26 05:04 | 55.02288 | -25.51968 | 39061 ft | 501 kts | 69° |
| 2026-04-26 05:04 | 55.04623 | -25.40505 | 39069 ft | 501 kts | 69° |
| 2026-04-26 05:05 | 55.06940 | -25.29036 | 39061 ft | 501 kts | 70° |
| 2026-04-26 05:05 | 55.09247 | -25.17564 | 39061 ft | 501 kts | 70° |
| 2026-04-26 05:06 | 55.11552 | -25.06056 | 39064 ft | 501 kts | 70° |
| 2026-04-26 05:06 | 55.13829 | -24.94622 | 39064 ft | 501 kts | 70° |
| 2026-04-26 05:07 | 55.16115 | -24.83086 | 39067 ft | 501 kts | 70° |
| 2026-04-26 05:07 | 55.18383 | -24.71556 | 39067 ft | 501 kts | 70° |
| 2026-04-26 05:08 | 55.20643 | -24.60006 | 39063 ft | 501 kts | 70° |
| 2026-04-26 05:08 | 55.22890 | -24.48451 | 39063 ft | 501 kts | 70° |
| 2026-04-26 05:09 | 55.25126 | -24.36883 | 39066 ft | 501 kts | 70° |
| 2026-04-26 05:09 | 55.27350 | -24.25310 | 39064 ft | 501 kts | 70° |
| 2026-04-26 05:10 | 55.29548 | -24.13803 | 39067 ft | 501 kts | 70° |
| 2026-04-26 05:10 | 55.31750 | -24.02204 | 39069 ft | 501 kts | 70° |
| 2026-04-26 05:11 | 55.33942 | -23.90590 | 39071 ft | 501 kts | 71° |
| 2026-04-26 05:11 | 55.36123 | -23.78969 | 39069 ft | 501 kts | 71° |
| 2026-04-26 05:12 | 55.38297 | -23.67342 | 39067 ft | 500 kts | 71° |
| 2026-04-26 05:12 | 55.40460 | -23.55688 | 39067 ft | 501 kts | 71° |
| 2026-04-26 05:13 | 55.42597 | -23.44084 | 39067 ft | 501 kts | 71° |
| 2026-04-26 05:13 | 55.44732 | -23.32415 | 39067 ft | 501 kts | 71° |
| 2026-04-26 05:14 | 55.46855 | -23.20733 | 39067 ft | 501 kts | 71° |
| 2026-04-26 05:14 | 55.48968 | -23.09035 | 39067 ft | 501 kts | 71° |
| 2026-04-26 05:15 | 55.51075 | -22.97298 | 39068 ft | 501 kts | 71° |
| 2026-04-26 05:15 | 55.53163 | -22.85587 | 39063 ft | 501 kts | 71° |
| 2026-04-26 05:16 | 55.55248 | -22.73823 | 39066 ft | 501 kts | 71° |
| 2026-04-26 05:16 | 55.57317 | -22.62069 | 39064 ft | 501 kts | 72° |
| 2026-04-26 05:17 | 55.59367 | -22.50354 | 39064 ft | 501 kts | 72° |
| 2026-04-26 05:17 | 55.61414 | -22.38574 | 39064 ft | 501 kts | 72° |
| 2026-04-26 05:18 | 55.63448 | -22.26792 | 39066 ft | 502 kts | 72° |
| 2026-04-26 05:18 | 55.65479 | -22.14952 | 39061 ft | 502 kts | 72° |
| 2026-04-26 05:19 | 55.67499 | -22.03092 | 39061 ft | 502 kts | 72° |
| 2026-04-26 05:19 | 55.69497 | -21.91287 | 39061 ft | 502 kts | 72° |
| 2026-04-26 05:20 | 55.71363 | -21.80182 | 39068 ft | 504 kts | 72° |
| 2026-04-26 05:20 | 55.73357 | -21.68241 | 39061 ft | 504 kts | 72° |
| 2026-04-26 05:21 | 55.75326 | -21.56380 | 39061 ft | 504 kts | 73° |
| 2026-04-26 05:21 | 55.77295 | -21.44431 | 39062 ft | 504 kts | 73° |
| 2026-04-26 05:22 | 55.79252 | -21.32469 | 39061 ft | 504 kts | 73° |
| 2026-04-26 05:22 | 55.81201 | -21.20473 | 39062 ft | 504 kts | 73° |
| 2026-04-26 05:23 | 55.83124 | -21.08555 | 39050 ft | 504 kts | 73° |
| 2026-04-26 05:23 | 55.85048 | -20.96552 | 39059 ft | 504 kts | 73° |
| 2026-04-26 05:24 | 55.86960 | -20.84530 | 39058 ft | 504 kts | 73° |
| 2026-04-26 05:24 | 55.88859 | -20.72510 | 39060 ft | 504 kts | 74° |
| 2026-04-26 05:25 | 55.90748 | -20.60463 | 39061 ft | 505 kts | 74° |
| 2026-04-26 05:25 | 55.92628 | -20.48390 | 39056 ft | 505 kts | 74° |
| 2026-04-26 05:26 | 55.94488 | -20.36358 | 39056 ft | 505 kts | 74° |
| 2026-04-26 05:26 | 55.96345 | -20.24261 | 39056 ft | 505 kts | 74° |
| 2026-04-26 05:27 | 55.98192 | -20.12133 | 39059 ft | 506 kts | 74° |
| 2026-04-26 05:27 | 55.99805 | -19.99973 | 39053 ft | 506 kts | 83° |
| 2026-04-26 05:28 | 56.00310 | -19.87443 | 39056 ft | 506 kts | 88° |
| 2026-04-26 05:28 | 56.00558 | -19.74864 | 39056 ft | 506 kts | 89° |
| 2026-04-26 05:29 | 56.00748 | -19.62284 | 39061 ft | 506 kts | 89° |
| 2026-04-26 05:29 | 56.00940 | -19.49704 | 39059 ft | 507 kts | 89° |
| 2026-04-26 05:30 | 56.01132 | -19.37178 | 39059 ft | 507 kts | 89° |
| 2026-04-26 05:30 | 56.01317 | -19.24582 | 39059 ft | 507 kts | 89° |
| 2026-04-26 05:31 | 56.01490 | -19.11974 | 39059 ft | 507 kts | 89° |
| 2026-04-26 05:31 | 56.01649 | -18.99368 | 39065 ft | 507 kts | 90° |
| 2026-04-26 05:32 | 56.01795 | -18.86783 | 39067 ft | 507 kts | 90° |
| 2026-04-26 05:32 | 56.01927 | -18.74260 | 39067 ft | 507 kts | 90° |
| 2026-04-26 05:33 | 56.02047 | -18.61668 | 39064 ft | 507 kts | 90° |
| 2026-04-26 05:33 | 56.02154 | -18.49089 | 39064 ft | 507 kts | 90° |
| 2026-04-26 05:34 | 56.02249 | -18.36497 | 39064 ft | 506 kts | 90° |
| 2026-04-26 05:34 | 56.02331 | -18.23908 | 39047 ft | 506 kts | 90° |
| 2026-04-26 05:35 | 56.02399 | -18.11307 | 39070 ft | 506 kts | 90° |
| 2026-04-26 05:35 | 56.02455 | -17.98697 | 39070 ft | 506 kts | 91° |
| 2026-04-26 05:36 | 56.02498 | -17.86106 | 39071 ft | 506 kts | 91° |
| 2026-04-26 05:36 | 56.02529 | -17.73577 | 39076 ft | 506 kts | 91° |
| 2026-04-26 05:37 | 56.02546 | -17.60984 | 39075 ft | 506 kts | 91° |
| 2026-04-26 05:37 | 56.02551 | -17.48371 | 39081 ft | 506 kts | 91° |
| 2026-04-26 05:38 | 56.02543 | -17.35786 | 39079 ft | 506 kts | 91° |
| 2026-04-26 05:38 | 56.02522 | -17.23258 | 39075 ft | 506 kts | 91° |
| 2026-04-26 05:39 | 56.02489 | -17.10667 | 39075 ft | 506 kts | 91° |
| 2026-04-26 05:39 | 56.02442 | -16.98167 | 39076 ft | 506 kts | 92° |
| 2026-04-26 05:40 | 56.02383 | -16.85592 | 39078 ft | 506 kts | 92° |
| 2026-04-26 05:40 | 56.02311 | -16.73001 | 39086 ft | 506 kts | 92° |
| 2026-04-26 05:41 | 56.02227 | -16.60431 | 39092 ft | 505 kts | 92° |
| 2026-04-26 05:41 | 56.02129 | -16.47857 | 39089 ft | 505 kts | 92° |
| 2026-04-26 05:42 | 56.02019 | -16.35302 | 39067 ft | 505 kts | 92° |
| 2026-04-26 05:42 | 56.01896 | -16.22746 | 39091 ft | 504 kts | 92° |
| 2026-04-26 05:43 | 56.01762 | -16.10290 | 39094 ft | 504 kts | 92° |
| 2026-04-26 05:43 | 56.01614 | -15.97772 | 39102 ft | 503 kts | 93° |
| 2026-04-26 05:44 | 56.01480 | -15.87293 | 39103 ft | 504 kts | 93° |
| 2026-04-26 05:44 | 56.01307 | -15.74716 | 39106 ft | 508 kts | 93° |
| 2026-04-26 05:45 | 56.01123 | -15.62174 | 39105 ft | 508 kts | 93° |
| 2026-04-26 05:45 | 56.00925 | -15.49518 | 39107 ft | 508 kts | 93° |
| 2026-04-26 05:46 | 56.00714 | -15.36898 | 39110 ft | 508 kts | 94° |
| 2026-04-26 05:46 | 56.00490 | -15.24271 | 39111 ft | 507 kts | 94° |
| 2026-04-26 05:47 | 56.00253 | -15.11669 | 39116 ft | 507 kts | 94° |
| 2026-04-26 05:47 | 56.00018 | -14.99135 | 39116 ft | 508 kts | 93° |
| 2026-04-26 05:48 | 55.99994 | -14.86515 | 39121 ft | 508 kts | 91° |
| 2026-04-26 05:48 | 56.00065 | -14.73908 | 39124 ft | 506 kts | 91° |
| 2026-04-26 05:49 | 56.00123 | -14.55062 | 39124 ft | 505 kts | 91° |
| 2026-04-26 05:50 | 56.00125 | -14.42505 | 39127 ft | 505 kts | 92° |
| 2026-04-26 05:50 | 56.00109 | -14.30043 | 39124 ft | 504 kts | 92° |
| 2026-04-26 05:51 | 56.00082 | -14.17518 | 39135 ft | 503 kts | 92° |
| 2026-04-26 05:51 | 56.00019 | -14.05026 | 39138 ft | 501 kts | 96° |
| 2026-04-26 05:52 | 55.98780 | -13.92888 | 39141 ft | 496 kts | 108° |
| 2026-04-26 05:52 | 55.96854 | -13.81077 | 39140 ft | 495 kts | 110° |
| 2026-04-26 05:53 | 55.94792 | -13.69350 | 39151 ft | 495 kts | 110° |
| 2026-04-26 05:53 | 55.92717 | -13.57619 | 39151 ft | 495 kts | 110° |
| 2026-04-26 05:54 | 55.90791 | -13.46682 | 39153 ft | 496 kts | 111° |
| 2026-04-26 05:54 | 55.88736 | -13.35032 | 39157 ft | 495 kts | 110° |
| 2026-04-26 05:55 | 55.86662 | -13.23317 | 39159 ft | 495 kts | 111° |
| 2026-04-26 05:55 | 55.84575 | -13.11614 | 39165 ft | 495 kts | 111° |
| 2026-04-26 05:56 | 55.82476 | -12.99926 | 39164 ft | 495 kts | 111° |
| 2026-04-26 05:56 | 55.80371 | -12.88276 | 39165 ft | 495 kts | 111° |
| 2026-04-26 05:57 | 55.78269 | -12.76719 | 39167 ft | 495 kts | 111° |
| 2026-04-26 05:57 | 55.76140 | -12.65088 | 39171 ft | 495 kts | 111° |
| 2026-04-26 05:58 | 55.74000 | -12.53469 | 39175 ft | 495 kts | 111° |
| 2026-04-26 05:58 | 55.71850 | -12.41863 | 39173 ft | 494 kts | 112° |
| 2026-04-26 05:59 | 55.69693 | -12.30291 | 39181 ft | 494 kts | 112° |
| 2026-04-26 05:59 | 55.67539 | -12.18805 | 39180 ft | 493 kts | 112° |
| 2026-04-26 06:00 | 55.65362 | -12.07275 | 39190 ft | 493 kts | 112° |
| 2026-04-26 06:00 | 55.63178 | -11.95777 | 39191 ft | 493 kts | 112° |
| 2026-04-26 06:01 | 55.60981 | -11.84276 | 39196 ft | 493 kts | 112° |
| 2026-04-26 06:01 | 55.58777 | -11.72806 | 39195 ft | 492 kts | 112° |
| 2026-04-26 06:02 | 55.56562 | -11.61350 | 39194 ft | 492 kts | 112° |
| 2026-04-26 06:02 | 55.54335 | -11.49897 | 39197 ft | 492 kts | 112° |
| 2026-04-26 06:03 | 55.52102 | -11.38483 | 39197 ft | 492 kts | 112° |
| 2026-04-26 06:03 | 55.49863 | -11.27106 | 39196 ft | 492 kts | 112° |
| 2026-04-26 06:04 | 55.47607 | -11.15705 | 39201 ft | 492 kts | 112° |
| 2026-04-26 06:04 | 55.45339 | -11.04314 | 39206 ft | 492 kts | 112° |
| 2026-04-26 06:05 | 55.43078 | -10.93020 | 39206 ft | 492 kts | 113° |
| 2026-04-26 06:05 | 55.40777 | -10.81600 | 39209 ft | 492 kts | 113° |
| 2026-04-26 06:06 | 55.38484 | -10.70281 | 39211 ft | 492 kts | 113° |
| 2026-04-26 06:06 | 55.36192 | -10.59028 | 39211 ft | 491 kts | 113° |
| 2026-04-26 06:07 | 55.33872 | -10.47703 | 39206 ft | 491 kts | 113° |
| 2026-04-26 06:07 | 55.31547 | -10.36421 | 39212 ft | 490 kts | 113° |
| 2026-04-26 06:08 | 55.29234 | -10.25256 | 39207 ft | 490 kts | 113° |
| 2026-04-26 06:08 | 55.26896 | -10.14033 | 39214 ft | 490 kts | 113° |
| 2026-04-26 06:09 | 55.24547 | -10.02822 | 39219 ft | 490 kts | 113° |
| 2026-04-26 06:09 | 55.22149 | -9.91655 | 39226 ft | 489 kts | 114° |
| 2026-04-26 06:10 | 55.19696 | -9.80539 | 39213 ft | 489 kts | 114° |
| 2026-04-26 06:10 | 55.17231 | -9.69441 | 39218 ft | 489 kts | 114° |
| 2026-04-26 06:11 | 55.14761 | -9.58351 | 39231 ft | 489 kts | 114° |
| 2026-04-26 06:11 | 55.12285 | -9.47273 | 39220 ft | 488 kts | 114° |
| 2026-04-26 06:12 | 55.09821 | -9.36300 | 39226 ft | 488 kts | 114° |
| 2026-04-26 06:12 | 55.07330 | -9.25270 | 39224 ft | 488 kts | 114° |
| 2026-04-26 06:13 | 55.04830 | -9.14262 | 39229 ft | 487 kts | 115° |
| 2026-04-26 06:13 | 55.02322 | -9.03271 | 39234 ft | 487 kts | 115° |
| 2026-04-26 06:14 | 54.99803 | -8.92291 | 39228 ft | 487 kts | 115° |
| 2026-04-26 06:14 | 54.97479 | -8.82210 | 39231 ft | 486 kts | 115° |
| 2026-04-26 06:15 | 54.94942 | -8.71264 | 39215 ft | 487 kts | 115° |
| 2026-04-26 06:15 | 54.92399 | -8.60344 | 39234 ft | 487 kts | 115° |
| 2026-04-26 06:16 | 54.89848 | -8.49443 | 39235 ft | 487 kts | 115° |
| 2026-04-26 06:16 | 54.87287 | -8.38557 | 39236 ft | 487 kts | 115° |
| 2026-04-26 06:17 | 54.84717 | -8.27689 | 39235 ft | 487 kts | 115° |
| 2026-04-26 06:17 | 54.82152 | -8.16895 | 39234 ft | 487 kts | 115° |
| 2026-04-26 06:18 | 54.79558 | -8.06037 | 39235 ft | 487 kts | 115° |
| 2026-04-26 06:18 | 54.76952 | -7.95181 | 39233 ft | 488 kts | 115° |
| 2026-04-26 06:19 | 54.74337 | -7.84336 | 39231 ft | 487 kts | 115° |
| 2026-04-26 06:19 | 54.71727 | -7.73574 | 39230 ft | 487 kts | 116° |
| 2026-04-26 06:20 | 54.69099 | -7.62789 | 39230 ft | 487 kts | 116° |
| 2026-04-26 06:20 | 54.66461 | -7.52013 | 39228 ft | 487 kts | 116° |
| 2026-04-26 06:21 | 54.63805 | -7.41221 | 39229 ft | 487 kts | 116° |
| 2026-04-26 06:21 | 54.61144 | -7.30458 | 39230 ft | 487 kts | 116° |
| 2026-04-26 06:22 | 54.58492 | -7.19786 | 39231 ft | 487 kts | 116° |
| 2026-04-26 06:22 | 54.55814 | -7.09059 | 39236 ft | 487 kts | 116° |
| 2026-04-26 06:23 | 54.53122 | -6.98331 | 39225 ft | 487 kts | 116° |
| 2026-04-26 06:23 | 54.50426 | -6.87635 | 39232 ft | 487 kts | 116° |
| 2026-04-26 06:24 | 54.47719 | -6.76951 | 39236 ft | 487 kts | 116° |
| 2026-04-26 06:24 | 54.45006 | -6.66294 | 39235 ft | 487 kts | 116° |
| 2026-04-26 06:25 | 54.42280 | -6.55635 | 39237 ft | 487 kts | 116° |
| 2026-04-26 06:25 | 54.39561 | -6.45053 | 39235 ft | 487 kts | 116° |
| 2026-04-26 06:26 | 54.36812 | -6.34410 | 39236 ft | 487 kts | 116° |
| 2026-04-26 06:26 | 54.34075 | -6.23857 | 39238 ft | 486 kts | 116° |
| 2026-04-26 06:27 | 54.31314 | -6.13265 | 39243 ft | 486 kts | 116° |
| 2026-04-26 06:27 | 54.28547 | -6.02701 | 39240 ft | 486 kts | 116° |
| 2026-04-26 06:28 | 54.25769 | -5.92141 | 39243 ft | 486 kts | 116° |
| 2026-04-26 06:28 | 54.22986 | -5.81613 | 39243 ft | 486 kts | 117° |
| 2026-04-26 06:29 | 54.20194 | -5.71099 | 39242 ft | 486 kts | 117° |
| 2026-04-26 06:29 | 54.17414 | -5.60678 | 39244 ft | 486 kts | 117° |
| 2026-04-26 06:30 | 54.14600 | -5.50179 | 39244 ft | 486 kts | 117° |
| 2026-04-26 06:30 | 54.11774 | -5.39683 | 39231 ft | 486 kts | 117° |
| 2026-04-26 06:31 | 54.08945 | -5.29227 | 39238 ft | 486 kts | 117° |
| 2026-04-26 06:31 | 54.06128 | -5.18858 | 39241 ft | 485 kts | 117° |
| 2026-04-26 06:32 | 54.03276 | -5.08408 | 39238 ft | 485 kts | 117° |
| 2026-04-26 06:32 | 54.00427 | -4.98018 | 39241 ft | 485 kts | 117° |
| 2026-04-26 06:33 | 53.97444 | -4.87812 | 39240 ft | 483 kts | 124° |
| 2026-04-26 06:33 | 53.93656 | -4.78435 | 39235 ft | 481 kts | 128° |
| 2026-04-26 06:34 | 53.90342 | -4.70776 | 39228 ft | 481 kts | 129° |
| 2026-04-26 06:34 | 53.86335 | -4.61675 | 39250 ft | 481 kts | 129° |
| 2026-04-26 06:35 | 53.82329 | -4.52581 | 39246 ft | 481 kts | 129° |
| 2026-04-26 06:35 | 53.78361 | -4.43562 | 39240 ft | 481 kts | 129° |
| 2026-04-26 06:36 | 53.74359 | -4.34484 | 39243 ft | 481 kts | 129° |
| 2026-04-26 06:36 | 53.70355 | -4.25430 | 39244 ft | 481 kts | 129° |
| 2026-04-26 06:37 | 53.66343 | -4.16394 | 39229 ft | 481 kts | 129° |
| 2026-04-26 06:37 | 53.62314 | -4.07356 | 39249 ft | 482 kts | 129° |
| 2026-04-26 06:38 | 53.58274 | -3.98322 | 39240 ft | 483 kts | 129° |
| 2026-04-26 06:38 | 53.54227 | -3.89305 | 39250 ft | 483 kts | 129° |
| 2026-04-26 06:39 | 53.50173 | -3.80306 | 39240 ft | 483 kts | 129° |
| 2026-04-26 06:39 | 53.46136 | -3.71376 | 39253 ft | 483 kts | 129° |
| 2026-04-26 06:40 | 53.42065 | -3.62405 | 39253 ft | 483 kts | 130° |
| 2026-04-26 06:40 | 53.37793 | -3.53744 | 39243 ft | 483 kts | 133° |
| 2026-04-26 06:41 | 53.33320 | -3.45330 | 39259 ft | 483 kts | 134° |
| 2026-04-26 06:41 | 53.28863 | -3.36995 | 39260 ft | 483 kts | 134° |
| 2026-04-26 06:42 | 53.24684 | -3.29129 | 39273 ft | 484 kts | 134° |
| 2026-04-26 06:42 | 53.20216 | -3.20719 | 39268 ft | 484 kts | 134° |
| 2026-04-26 06:43 | 53.15748 | -3.12323 | 39272 ft | 483 kts | 134° |
| 2026-04-26 06:43 | 53.11311 | -3.04006 | 39293 ft | 483 kts | 134° |
| 2026-04-26 06:44 | 53.06828 | -2.95625 | 39289 ft | 485 kts | 134° |
| 2026-04-26 06:44 | 53.02340 | -2.87251 | 39287 ft | 485 kts | 134° |
| 2026-04-26 06:45 | 52.97846 | -2.78903 | 39307 ft | 485 kts | 134° |
| 2026-04-26 06:45 | 52.93338 | -2.70567 | 39311 ft | 485 kts | 134° |
| 2026-04-26 06:46 | 52.88826 | -2.62252 | 39318 ft | 485 kts | 134° |
| 2026-04-26 06:46 | 52.84311 | -2.53959 | 39318 ft | 485 kts | 134° |
| 2026-04-26 06:47 | 52.79816 | -2.45732 | 39315 ft | 486 kts | 134° |
| 2026-04-26 06:47 | 52.75277 | -2.37452 | 39315 ft | 486 kts | 134° |
| 2026-04-26 06:48 | 52.70731 | -2.29185 | 39297 ft | 486 kts | 134° |
| 2026-04-26 06:48 | 52.66180 | -2.20938 | 39299 ft | 485 kts | 134° |
| 2026-04-26 06:49 | 52.61652 | -2.12758 | 39303 ft | 485 kts | 134° |
| 2026-04-26 06:49 | 52.57097 | -2.04558 | 39302 ft | 485 kts | 134° |
| 2026-04-26 06:50 | 52.52540 | -1.96382 | 39307 ft | 486 kts | 134° |
| 2026-04-26 06:50 | 52.47954 | -1.88183 | 39305 ft | 487 kts | 134° |
| 2026-04-26 06:51 | 52.43360 | -1.79994 | 39319 ft | 487 kts | 134° |
| 2026-04-26 06:51 | 52.36497 | -1.67811 | 39320 ft | 487 kts | 134° |
| 2026-04-26 06:52 | 52.31844 | -1.59731 | 39316 ft | 487 kts | 135° |
| 2026-04-26 06:52 | 52.27151 | -1.51741 | 39327 ft | 487 kts | 135° |
| 2026-04-26 06:53 | 52.22456 | -1.43779 | 39347 ft | 487 kts | 135° |
| 2026-04-26 06:53 | 52.17753 | -1.35810 | 39347 ft | 488 kts | 135° |
| 2026-04-26 06:54 | 52.13043 | -1.27844 | 39347 ft | 488 kts | 135° |
| 2026-04-26 06:54 | 52.08325 | -1.19890 | 39338 ft | 488 kts | 135° |
| 2026-04-26 06:55 | 52.03603 | -1.11955 | 39321 ft | 488 kts | 135° |
| 2026-04-26 06:55 | 51.98868 | -1.04129 | 39312 ft | 488 kts | 138° |
| 2026-04-26 06:56 | 51.93857 | -0.96720 | 39322 ft | 487 kts | 140° |
| 2026-04-26 06:56 | 51.88739 | -0.89477 | 39316 ft | 489 kts | 140° |
| 2026-04-26 06:57 | 51.83657 | -0.82262 | 39314 ft | 489 kts | 140° |
| 2026-04-26 06:57 | 51.78565 | -0.74987 | 39312 ft | 489 kts | 140° |
| 2026-04-26 06:58 | 51.73469 | -0.67701 | 39317 ft | 488 kts | 140° |
| 2026-04-26 06:58 | 51.68371 | -0.60434 | 39318 ft | 488 kts | 140° |
| 2026-04-26 06:59 | 51.63643 | -0.52681 | 39320 ft | 489 kts | 127° |
| 2026-04-26 06:59 | 51.61827 | -0.48030 | 39318 ft | 490 kts | 116° |
| 2026-04-26 06:59 | 51.60634 | -0.43631 | 39318 ft | 491 kts | 111° |
| 2026-04-26 07:00 | 51.58349 | -0.33263 | 39316 ft | 491 kts | 108° |
| 2026-04-26 07:00 | 51.56245 | -0.22798 | 39323 ft | 491 kts | 108° |
| 2026-04-26 07:01 | 51.54125 | -0.12414 | 39324 ft | 491 kts | 108° |
| 2026-04-26 07:01 | 51.51955 | -0.02025 | 39321 ft | 491 kts | 108° |
| 2026-04-26 07:02 | 51.49757 | 0.08365 | 39352 ft | 492 kts | 108° |
| 2026-04-26 07:02 | 51.47560 | 0.18693 | 39346 ft | 492 kts | 108° |
| 2026-04-26 07:03 | 51.45341 | 0.29089 | 39338 ft | 492 kts | 108° |
| 2026-04-26 07:03 | 51.43122 | 0.39466 | 39334 ft | 492 kts | 108° |
| 2026-04-26 07:04 | 51.40891 | 0.49840 | 39336 ft | 492 kts | 108° |
| 2026-04-26 07:04 | 51.38650 | 0.60187 | 39335 ft | 492 kts | 108° |
| 2026-04-26 07:05 | 51.36397 | 0.70533 | 39337 ft | 492 kts | 108° |
| 2026-04-26 07:05 | 51.34132 | 0.80876 | 39330 ft | 492 kts | 108° |
| 2026-04-26 07:06 | 51.31871 | 0.91156 | 39306 ft | 492 kts | 109° |
| 2026-04-26 07:06 | 51.29590 | 1.01473 | 39318 ft | 492 kts | 108° |
| 2026-04-26 07:07 | 51.27670 | 1.11940 | 39319 ft | 490 kts | 104° |
| 2026-04-26 07:07 | 51.25939 | 1.22478 | 39318 ft | 490 kts | 103° |
| 2026-04-26 07:08 | 51.24247 | 1.32952 | 39324 ft | 490 kts | 103° |
| 2026-04-26 07:08 | 51.22531 | 1.43491 | 39331 ft | 490 kts | 103° |
| 2026-04-26 07:09 | 51.20803 | 1.53995 | 39319 ft | 489 kts | 104° |
| 2026-04-26 07:09 | 51.19063 | 1.64490 | 39321 ft | 489 kts | 104° |
| 2026-04-26 07:11 | 51.14683 | 1.90611 | 39344 ft | 489 kts | 104° |
| 2026-04-26 07:11 | 51.13156 | 2.01137 | 39336 ft | 486 kts | 96° |
| 2026-04-26 07:12 | 51.12427 | 2.11829 | 39335 ft | 485 kts | 94° |
| 2026-04-26 07:12 | 51.11850 | 2.22553 | 39331 ft | 486 kts | 94° |
| 2026-04-26 07:13 | 51.11291 | 2.33213 | 39326 ft | 486 kts | 94° |
| 2026-04-26 07:13 | 51.10706 | 2.43937 | 39321 ft | 486 kts | 94° |
| 2026-04-26 07:14 | 51.10102 | 2.54635 | 39320 ft | 485 kts | 94° |
| 2026-04-26 07:14 | 51.08724 | 2.65114 | 39321 ft | 485 kts | 111° |
| 2026-04-26 07:15 | 51.05526 | 2.74520 | 39320 ft | 485 kts | 123° |
| 2026-04-26 07:15 | 51.01754 | 2.83350 | 39325 ft | 485 kts | 125° |
| 2026-04-26 07:16 | 50.97859 | 2.92127 | 39318 ft | 484 kts | 126° |
| 2026-04-26 07:16 | 50.93997 | 3.00871 | 39318 ft | 484 kts | 125° |
| 2026-04-26 07:17 | 50.90406 | 3.09047 | 39317 ft | 485 kts | 125° |
| 2026-04-26 07:17 | 50.86555 | 3.17822 | 39315 ft | 484 kts | 125° |
| 2026-04-26 07:18 | 50.82730 | 3.26509 | 39302 ft | 484 kts | 125° |
| 2026-04-26 07:18 | 50.78868 | 3.35250 | 39307 ft | 484 kts | 126° |
| 2026-04-26 07:19 | 50.75003 | 3.43965 | 39309 ft | 484 kts | 126° |
| 2026-04-26 07:19 | 50.71136 | 3.52653 | 39309 ft | 484 kts | 126° |
| 2026-04-26 07:20 | 50.67256 | 3.61340 | 39309 ft | 484 kts | 126° |
| 2026-04-26 07:20 | 50.63400 | 3.69949 | 39305 ft | 484 kts | 126° |
| 2026-04-26 07:21 | 50.59512 | 3.78600 | 39304 ft | 483 kts | 126° |
| 2026-04-26 07:21 | 50.55682 | 3.87295 | 39300 ft | 483 kts | 124° |
| 2026-04-26 07:22 | 50.52633 | 3.94651 | 39296 ft | 483 kts | 123° |
| 2026-04-26 07:22 | 50.48994 | 4.03540 | 39295 ft | 483 kts | 123° |
| 2026-04-26 07:23 | 50.45344 | 4.12381 | 39294 ft | 483 kts | 123° |
| 2026-04-26 07:23 | 50.41672 | 4.21194 | 39291 ft | 483 kts | 124° |
| 2026-04-26 07:24 | 50.37980 | 4.30010 | 39292 ft | 483 kts | 124° |
| 2026-04-26 07:24 | 50.34287 | 4.38796 | 39290 ft | 483 kts | 124° |
| 2026-04-26 07:25 | 50.30603 | 4.47534 | 39293 ft | 483 kts | 124° |
| 2026-04-26 07:25 | 50.26899 | 4.56292 | 39289 ft | 483 kts | 124° |
| 2026-04-26 07:26 | 50.23182 | 4.65050 | 39287 ft | 483 kts | 124° |
| 2026-04-26 07:26 | 50.19467 | 4.73778 | 39282 ft | 482 kts | 124° |
| 2026-04-26 07:27 | 50.15762 | 4.82449 | 39280 ft | 482 kts | 124° |
| 2026-04-26 07:27 | 50.12032 | 4.91153 | 39277 ft | 482 kts | 124° |
| 2026-04-26 07:28 | 50.08288 | 4.99861 | 39267 ft | 482 kts | 124° |
| 2026-04-26 07:28 | 50.04565 | 5.08491 | 39272 ft | 483 kts | 124° |
| 2026-04-26 07:29 | 50.00812 | 5.17161 | 39262 ft | 483 kts | 124° |
| 2026-04-26 07:29 | 49.97051 | 5.25822 | 39263 ft | 483 kts | 124° |
| 2026-04-26 07:30 | 49.93288 | 5.34459 | 39260 ft | 483 kts | 124° |
| 2026-04-26 07:30 | 49.89545 | 5.43023 | 39262 ft | 483 kts | 125° |
| 2026-04-26 07:31 | 49.85764 | 5.51646 | 39262 ft | 483 kts | 125° |
| 2026-04-26 07:31 | 49.81972 | 5.60265 | 39253 ft | 483 kts | 125° |
| 2026-04-26 07:32 | 49.78184 | 5.68850 | 39255 ft | 482 kts | 125° |
| 2026-04-26 07:32 | 49.74392 | 5.77414 | 39259 ft | 482 kts | 125° |
| 2026-04-26 07:33 | 49.70614 | 5.85918 | 39257 ft | 482 kts | 125° |
| 2026-04-26 07:33 | 49.66812 | 5.94449 | 39262 ft | 482 kts | 125° |
| 2026-04-26 07:34 | 49.63001 | 6.02972 | 39263 ft | 482 kts | 125° |
| 2026-04-26 07:34 | 49.59189 | 6.11470 | 39264 ft | 482 kts | 126° |
| 2026-04-26 07:35 | 49.55361 | 6.19979 | 39264 ft | 482 kts | 126° |
| 2026-04-26 07:35 | 49.51561 | 6.28398 | 39265 ft | 481 kts | 126° |
| 2026-04-26 07:36 | 49.47418 | 6.36458 | 39262 ft | 479 kts | 137° |
| 2026-04-26 07:36 | 49.42016 | 6.42318 | 39257 ft | 475 kts | 154° |
| 2026-04-26 07:37 | 49.36037 | 6.46638 | 39255 ft | 474 kts | 158° |
| 2026-04-26 07:37 | 49.29980 | 6.50652 | 39254 ft | 474 kts | 158° |
| 2026-04-26 07:38 | 49.23919 | 6.54667 | 39245 ft | 475 kts | 158° |
| 2026-04-26 07:38 | 49.17869 | 6.58724 | 39249 ft | 475 kts | 158° |
| 2026-04-26 07:39 | 49.11819 | 6.62798 | 39245 ft | 475 kts | 158° |
| 2026-04-26 07:39 | 49.05775 | 6.66862 | 39251 ft | 474 kts | 158° |
| 2026-04-26 07:40 | 49.00203 | 6.70598 | 39251 ft | 473 kts | 158° |
| 2026-04-26 07:40 | 48.94122 | 6.74426 | 39247 ft | 473 kts | 160° |
| 2026-04-26 07:41 | 48.87962 | 6.78037 | 39242 ft | 473 kts | 161° |
| 2026-04-26 07:41 | 48.81809 | 6.81623 | 39248 ft | 473 kts | 161° |
| 2026-04-26 07:42 | 48.75667 | 6.85228 | 39245 ft | 473 kts | 161° |
| 2026-04-26 07:42 | 48.69557 | 6.88824 | 39241 ft | 473 kts | 161° |
| 2026-04-26 07:43 | 48.63421 | 6.92430 | 39244 ft | 473 kts | 161° |
| 2026-04-26 07:43 | 48.57277 | 6.96030 | 38646 ft | 473 kts | 161° |
| 2026-04-26 07:43 | 48.54196 | 6.97830 | 37976 ft | 474 kts | 161° |
| 2026-04-26 07:44 | 48.51115 | 6.99629 | 37317 ft | 473 kts | 161° |
| 2026-04-26 07:44 | 48.48036 | 7.01424 | 36655 ft | 473 kts | 161° |
| 2026-04-26 07:44 | 48.45007 | 7.03187 | 36003 ft | 474 kts | 161° |
| 2026-04-26 07:44 | 48.41920 | 7.04982 | 35237 ft | 477 kts | 161° |
| 2026-04-26 07:45 | 48.38807 | 7.06789 | 34436 ft | 480 kts | 161° |
| 2026-04-26 07:45 | 48.35678 | 7.08602 | 33552 ft | 483 kts | 161° |
| 2026-04-26 07:45 | 48.32527 | 7.10427 | 32710 ft | 484 kts | 161° |
| 2026-04-26 07:45 | 48.29371 | 7.12253 | 31850 ft | 486 kts | 161° |
| 2026-04-26 07:46 | 48.26210 | 7.14079 | 30949 ft | 488 kts | 161° |
| 2026-04-26 07:46 | 48.23074 | 7.15888 | 30003 ft | 490 kts | 162° |
| 2026-04-26 07:46 | 48.19908 | 7.17713 | 29381 ft | 483 kts | 161° |
| 2026-04-26 07:46 | 48.16787 | 7.19510 | 28822 ft | 476 kts | 161° |
| 2026-04-26 07:47 | 48.13715 | 7.21277 | 28220 ft | 470 kts | 161° |
| 2026-04-26 07:47 | 48.10680 | 7.23026 | 27622 ft | 465 kts | 161° |
| 2026-04-26 07:47 | 48.07677 | 7.24756 | 27036 ft | 460 kts | 161° |
| 2026-04-26 07:47 | 48.04704 | 7.26465 | 26444 ft | 455 kts | 161° |
| 2026-04-26 07:48 | 48.01761 | 7.28152 | 25857 ft | 451 kts | 161° |
| 2026-04-26 07:48 | 47.98840 | 7.29823 | 25269 ft | 447 kts | 161° |
| 2026-04-26 07:48 | 47.95946 | 7.31474 | 24675 ft | 444 kts | 161° |
| 2026-04-26 07:48 | 47.93064 | 7.33116 | 24086 ft | 442 kts | 161° |
| 2026-04-26 07:49 | 47.90199 | 7.34744 | 23425 ft | 439 kts | 161° |
| 2026-04-26 07:49 | 47.87357 | 7.36357 | 22822 ft | 435 kts | 161° |
| 2026-04-26 07:49 | 47.84572 | 7.37937 | 22241 ft | 430 kts | 161° |
| 2026-04-26 07:50 | 47.79024 | 7.41076 | 21084 ft | 423 kts | 160° |
| 2026-04-26 07:50 | 47.76282 | 7.42626 | 20502 ft | 419 kts | 160° |
| 2026-04-26 07:50 | 47.73568 | 7.44159 | 19939 ft | 416 kts | 160° |
| 2026-04-26 07:50 | 47.70867 | 7.45683 | 19378 ft | 413 kts | 160° |
| 2026-04-26 07:51 | 47.68183 | 7.47198 | 18808 ft | 411 kts | 160° |
| 2026-04-26 07:51 | 47.65637 | 7.48969 | 18222 ft | 409 kts | 148° |
| 2026-04-26 07:51 | 47.63493 | 7.51692 | 17635 ft | 406 kts | 129° |
| 2026-04-26 07:51 | 47.62046 | 7.55248 | 17076 ft | 402 kts | 113° |
| 2026-04-26 07:52 | 47.61064 | 7.59116 | 16515 ft | 398 kts | 108° |
| 2026-04-26 07:52 | 47.60177 | 7.62997 | 15962 ft | 395 kts | 108° |
| 2026-04-26 07:52 | 47.59300 | 7.66846 | 15416 ft | 392 kts | 108° |
| 2026-04-26 07:52 | 47.58423 | 7.70651 | 14854 ft | 390 kts | 108° |
| 2026-04-26 07:53 | 47.57542 | 7.74435 | 14304 ft | 387 kts | 108° |
| 2026-04-26 07:53 | 47.56663 | 7.78193 | 13723 ft | 384 kts | 109° |
| 2026-04-26 07:53 | 47.55789 | 7.81913 | 13147 ft | 380 kts | 108° |
| 2026-04-26 07:53 | 47.54934 | 7.85540 | 12620 ft | 375 kts | 108° |
| 2026-04-26 07:54 | 47.54076 | 7.89171 | 12121 ft | 371 kts | 108° |
| 2026-04-26 07:54 | 47.53243 | 7.92683 | 12001 ft | 353 kts | 108° |
| 2026-04-26 07:54 | 47.52446 | 7.96039 | 11911 ft | 337 kts | 108° |
| 2026-04-26 07:54 | 47.51684 | 7.99250 | 11761 ft | 324 kts | 107° |
| 2026-04-26 07:55 | 47.50949 | 8.02333 | 11629 ft | 312 kts | 108° |
| 2026-04-26 07:55 | 47.50240 | 8.05312 | 11495 ft | 302 kts | 107° |
| 2026-04-26 07:55 | 47.49553 | 8.08198 | 11358 ft | 292 kts | 108° |
| 2026-04-26 07:55 | 47.48890 | 8.10987 | 11232 ft | 283 kts | 108° |
| 2026-04-26 07:56 | 47.48238 | 8.13725 | 10960 ft | 282 kts | 107° |
| 2026-04-26 07:56 | 47.47593 | 8.16473 | 10610 ft | 283 kts | 104° |
| 2026-04-26 07:56 | 47.47290 | 8.19313 | 10284 ft | 279 kts | 85° |
| 2026-04-26 07:56 | 47.47755 | 8.22052 | 9940 ft | 274 kts | 64° |
| 2026-04-26 07:57 | 47.48810 | 8.24355 | 9620 ft | 269 kts | 43° |
| 2026-04-26 07:57 | 47.50331 | 8.25810 | 9336 ft | 263 kts | 19° |
| 2026-04-26 07:57 | 47.52127 | 8.26209 | 9047 ft | 261 kts | 355° |
| 2026-04-26 07:57 | 47.53855 | 8.25476 | 8764 ft | 261 kts | 332° |
| 2026-04-26 07:58 | 47.55313 | 8.23876 | 8477 ft | 261 kts | 319° |
| 2026-04-26 07:58 | 47.56645 | 8.22038 | 8187 ft | 261 kts | 317° |
| 2026-04-26 07:58 | 47.57958 | 8.20177 | 7897 ft | 262 kts | 318° |
| 2026-04-26 07:58 | 47.59309 | 8.18375 | 7603 ft | 261 kts | 325° |
| 2026-04-26 07:59 | 47.60895 | 8.17218 | 7312 ft | 258 kts | 348° |
| 2026-04-26 07:59 | 47.62670 | 8.17173 | 7025 ft | 255 kts | 14° |
| 2026-04-26 07:59 | 47.64259 | 8.18286 | 6705 ft | 254 kts | 39° |
| 2026-04-26 07:59 | 47.65550 | 8.20083 | 6424 ft | 252 kts | 47° |
| 2026-04-26 08:00 | 47.66636 | 8.22060 | 6307 ft | 243 kts | 60° |
| 2026-04-26 08:00 | 47.67197 | 8.24350 | 6211 ft | 233 kts | 83° |
| 2026-04-26 08:00 | 47.67081 | 8.26669 | 6141 ft | 221 kts | 105° |
| 2026-04-26 08:00 | 47.66378 | 8.28627 | 6045 ft | 212 kts | 127° |
| 2026-04-26 08:01 | 47.65376 | 8.30175 | 5888 ft | 206 kts | 134° |
| 2026-04-26 08:01 | 47.64333 | 8.31595 | 5714 ft | 201 kts | 136° |
| 2026-04-26 08:01 | 47.63299 | 8.32979 | 5443 ft | 200 kts | 135° |
| 2026-04-26 08:01 | 47.62281 | 8.34352 | 5246 ft | 197 kts | 135° |
| 2026-04-26 08:02 | 47.61271 | 8.35727 | 4985 ft | 198 kts | 136° |
| 2026-04-26 08:02 | 47.60207 | 8.37066 | 4528 ft | 208 kts | 133° |
| 2026-04-26 08:02 | 47.59203 | 8.38572 | 4235 ft | 201 kts | 136° |
| 2026-04-26 08:02 | 47.58200 | 8.39879 | 4021 ft | 184 kts | 134° |
| 2026-04-26 08:03 | 47.57299 | 8.41133 | 3849 ft | 172 kts | 133° |
| 2026-04-26 08:03 | 47.56461 | 8.42307 | 3653 ft | 161 kts | 133° |
| 2026-04-26 08:03 | 47.55644 | 8.43427 | 3434 ft | 159 kts | 134° |
| 2026-04-26 08:03 | 47.54848 | 8.44513 | 3244 ft | 150 kts | 133° |
| 2026-04-26 08:04 | 47.54102 | 8.45541 | 3038 ft | 143 kts | 133° |
| 2026-04-26 08:04 | 47.53372 | 8.46542 | 2839 ft | 143 kts | 133° |
| 2026-04-26 08:04 | 47.52641 | 8.47545 | 2658 ft | 143 kts | 134° |
| 2026-04-26 08:04 | 47.51912 | 8.48542 | 2463 ft | 143 kts | 134° |
| 2026-04-26 08:05 | 47.51189 | 8.49533 | 2262 ft | 142 kts | 135° |
| 2026-04-26 08:05 | 47.50462 | 8.50529 | 2063 ft | 142 kts | 134° |
| 2026-04-26 08:05 | 47.49737 | 8.51519 | 1860 ft | 141 kts | 135° |
| 2026-04-26 08:05 | 47.49023 | 8.52482 | 1678 ft | 140 kts | 134° |
| 2026-04-26 08:06 | 47.48314 | 8.53462 | 1467 ft | 139 kts | 135° |
| 2026-04-26 08:06 | 47.47626 | 8.54405 | 1409 ft | 120 kts | 136° |
| 2026-04-26 08:06 | 47.47161 | 8.55038 | 1407 ft | 62 kts | 136° |
| 2026-04-26 08:06 | 47.46881 | 8.55418 | 1407 ft | 52 kts | 137° |
| 2026-04-26 08:07 | 47.46621 | 8.55669 | 1408 ft | 37 kts | 164° |
| 2026-04-26 08:07 | 47.46438 | 8.55732 | 1403 ft | 24 kts | 167° |
| 2026-04-26 08:07 | 47.46326 | 8.55832 | 1411 ft | 14 kts | 137° |
| 2026-04-26 08:07 | 47.46254 | 8.55931 | 1411 ft | 11 kts | 136° |
| 2026-04-26 08:08 | 47.46233 | 8.55961 | 1410 ft | 4 kts | 137° |
| 2026-04-26 08:08 | 47.46211 | 8.55987 | 1412 ft | 4 kts | 147° |
| 2026-04-26 08:08 | 47.46181 | 8.56001 | 1410 ft | 5 kts | 172° |
| 2026-04-26 08:08 | 47.46137 | 8.55997 | 1404 ft | 7 kts | 185° |
| 2026-04-26 08:09 | 47.46086 | 8.55990 | 1407 ft | 9 kts | 186° |
| 2026-04-26 08:09 | 47.46019 | 8.55979 | 1407 ft | 11 kts | 186° |
| 2026-04-26 08:09 | 47.45945 | 8.55944 | 1413 ft | 13 kts | 230° |
| 2026-04-26 08:09 | 47.45944 | 8.55796 | 1407 ft | 17 kts | 276° |
| 2026-04-26 08:10 | 47.45958 | 8.55606 | 1403 ft | 20 kts | 276° |
| 2026-04-26 08:10 | 47.45972 | 8.55418 | 1404 ft | 16 kts | 275° |
| 2026-04-26 08:10 | 47.45980 | 8.55286 | 1405 ft | 8 kts | 275° |
| 2026-04-26 08:10 | 47.45999 | 8.55243 | 1408 ft | 3 kts | 332° |
| 2026-04-26 08:11 | 47.46013 | 8.55238 | 1402 ft | 3 kts | 346° |
| 2026-04-26 08:11 | 47.46036 | 8.55235 | 1402 ft | 5 kts | 359° |
| 2026-04-26 08:11 | 47.46064 | 8.55240 | 1402 ft | 0 kts | 7° |